<?xml version="1.0" encoding="UTF-8" standalone="no" ?>
<gpx xmlns="http://www.topografix.com/GPX/1/1" xmlns:xsi="http://www.w3.org/2001/XMLSchema-instance" xsi:schemaLocation="http://www.topografix.com/GPX/1/1 http://www.topografix.com/GPX/1/1/gpx.xsd" version="1.1" creator="VisuGPX - https://www.visugpx.com">
  <metadata>
    <name>Kirbon Les Michels</name>
    <desc><![CDATA[Rando tranquille dans des forêts de chênes et de pins.  ]]></desc>
  </metadata>
  <trk>
    <name><![CDATA[Kirbon Les Michels_2]]></name>
    <trkseg>
      <trkpt lat="43.43721" lon="5.60179">
        <ele>357.5</ele>
        <time>2013-04-10T10:54:58Z</time>
      </trkpt>
      <trkpt lat="43.43721" lon="5.60179">
        <ele>357.5</ele>
        <time>2013-04-10T10:54:59Z</time>
      </trkpt>
      <trkpt lat="43.43717" lon="5.60167">
        <ele>363.1</ele>
        <time>2013-04-10T10:57:35Z</time>
      </trkpt>
      <trkpt lat="43.43723" lon="5.60178">
        <ele>351.7</ele>
        <time>2013-04-10T11:13:40Z</time>
      </trkpt>
      <trkpt lat="43.43714" lon="5.60173">
        <ele>353</ele>
        <time>2013-04-10T11:15:32Z</time>
      </trkpt>
      <trkpt lat="43.43718" lon="5.60185">
        <ele>350.6</ele>
        <time>2013-04-10T11:16:33Z</time>
      </trkpt>
      <trkpt lat="43.4371" lon="5.60179">
        <ele>351</ele>
        <time>2013-04-10T11:20:09Z</time>
      </trkpt>
      <trkpt lat="43.43695" lon="5.60166">
        <ele>346.3</ele>
        <time>2013-04-10T11:20:30Z</time>
      </trkpt>
      <trkpt lat="43.43687" lon="5.60167">
        <ele>348.2</ele>
        <time>2013-04-10T11:20:40Z</time>
      </trkpt>
      <trkpt lat="43.43679" lon="5.60171">
        <ele>349.7</ele>
        <time>2013-04-10T11:20:49Z</time>
      </trkpt>
      <trkpt lat="43.43671" lon="5.60174">
        <ele>350.8</ele>
        <time>2013-04-10T11:21:00Z</time>
      </trkpt>
      <trkpt lat="43.43664" lon="5.60178">
        <ele>351.7</ele>
        <time>2013-04-10T11:21:08Z</time>
      </trkpt>
      <trkpt lat="43.43656" lon="5.60184">
        <ele>353.3</ele>
        <time>2013-04-10T11:21:18Z</time>
      </trkpt>
      <trkpt lat="43.43655" lon="5.60184">
        <ele>353.6</ele>
        <time>2013-04-10T11:21:19Z</time>
      </trkpt>
      <trkpt lat="43.4364" lon="5.60194">
        <ele>356.6</ele>
        <time>2013-04-10T11:21:36Z</time>
      </trkpt>
      <trkpt lat="43.43632" lon="5.60199">
        <ele>358.6</ele>
        <time>2013-04-10T11:21:45Z</time>
      </trkpt>
      <trkpt lat="43.43624" lon="5.60203">
        <ele>358.6</ele>
        <time>2013-04-10T11:21:54Z</time>
      </trkpt>
      <trkpt lat="43.43616" lon="5.60207">
        <ele>358.2</ele>
        <time>2013-04-10T11:22:02Z</time>
      </trkpt>
      <trkpt lat="43.43608" lon="5.60212">
        <ele>359.2</ele>
        <time>2013-04-10T11:22:12Z</time>
      </trkpt>
      <trkpt lat="43.43599" lon="5.60214">
        <ele>357.7</ele>
        <time>2013-04-10T11:22:22Z</time>
      </trkpt>
      <trkpt lat="43.43598" lon="5.60215">
        <ele>357.5</ele>
        <time>2013-04-10T11:22:23Z</time>
      </trkpt>
      <trkpt lat="43.43583" lon="5.60222">
        <ele>359.7</ele>
        <time>2013-04-10T11:22:37Z</time>
      </trkpt>
      <trkpt lat="43.43575" lon="5.60225">
        <ele>359.8</ele>
        <time>2013-04-10T11:22:45Z</time>
      </trkpt>
      <trkpt lat="43.43567" lon="5.60229">
        <ele>361</ele>
        <time>2013-04-10T11:22:53Z</time>
      </trkpt>
      <trkpt lat="43.43559" lon="5.60233">
        <ele>362</ele>
        <time>2013-04-10T11:23:02Z</time>
      </trkpt>
      <trkpt lat="43.43551" lon="5.60237">
        <ele>360.8</ele>
        <time>2013-04-10T11:23:09Z</time>
      </trkpt>
      <trkpt lat="43.43543" lon="5.6024">
        <ele>361.2</ele>
        <time>2013-04-10T11:23:17Z</time>
      </trkpt>
      <trkpt lat="43.43535" lon="5.60243">
        <ele>361.1</ele>
        <time>2013-04-10T11:23:26Z</time>
      </trkpt>
      <trkpt lat="43.43534" lon="5.60243">
        <ele>361.5</ele>
        <time>2013-04-10T11:23:27Z</time>
      </trkpt>
      <trkpt lat="43.43518" lon="5.60246">
        <ele>366.6</ele>
        <time>2013-04-10T11:23:44Z</time>
      </trkpt>
      <trkpt lat="43.4351" lon="5.60247">
        <ele>369.6</ele>
        <time>2013-04-10T11:23:52Z</time>
      </trkpt>
      <trkpt lat="43.43501" lon="5.60249">
        <ele>370.1</ele>
        <time>2013-04-10T11:24:01Z</time>
      </trkpt>
      <trkpt lat="43.43493" lon="5.60251">
        <ele>368.7</ele>
        <time>2013-04-10T11:24:09Z</time>
      </trkpt>
      <trkpt lat="43.43484" lon="5.60252">
        <ele>370.2</ele>
        <time>2013-04-10T11:24:19Z</time>
      </trkpt>
      <trkpt lat="43.43476" lon="5.60255">
        <ele>370.3</ele>
        <time>2013-04-10T11:24:27Z</time>
      </trkpt>
      <trkpt lat="43.43475" lon="5.60255">
        <ele>370.3</ele>
        <time>2013-04-10T11:24:28Z</time>
      </trkpt>
      <trkpt lat="43.43459" lon="5.60257">
        <ele>367.1</ele>
        <time>2013-04-10T11:24:43Z</time>
      </trkpt>
      <trkpt lat="43.43451" lon="5.6026">
        <ele>366</ele>
        <time>2013-04-10T11:24:50Z</time>
      </trkpt>
      <trkpt lat="43.43442" lon="5.60262">
        <ele>364.1</ele>
        <time>2013-04-10T11:24:58Z</time>
      </trkpt>
      <trkpt lat="43.43434" lon="5.60265">
        <ele>364.2</ele>
        <time>2013-04-10T11:25:05Z</time>
      </trkpt>
      <trkpt lat="43.43426" lon="5.60267">
        <ele>365.8</ele>
        <time>2013-04-10T11:25:11Z</time>
      </trkpt>
      <trkpt lat="43.43418" lon="5.60271">
        <ele>366.7</ele>
        <time>2013-04-10T11:25:18Z</time>
      </trkpt>
      <trkpt lat="43.4341" lon="5.60273">
        <ele>366.8</ele>
        <time>2013-04-10T11:25:26Z</time>
      </trkpt>
      <trkpt lat="43.43402" lon="5.60275">
        <ele>368.6</ele>
        <time>2013-04-10T11:25:33Z</time>
      </trkpt>
      <trkpt lat="43.43401" lon="5.60275">
        <ele>368.5</ele>
        <time>2013-04-10T11:25:34Z</time>
      </trkpt>
      <trkpt lat="43.43385" lon="5.60284">
        <ele>367.7</ele>
        <time>2013-04-10T11:25:49Z</time>
      </trkpt>
      <trkpt lat="43.43378" lon="5.60287">
        <ele>368.1</ele>
        <time>2013-04-10T11:25:56Z</time>
      </trkpt>
      <trkpt lat="43.43369" lon="5.6029">
        <ele>368.3</ele>
        <time>2013-04-10T11:26:03Z</time>
      </trkpt>
      <trkpt lat="43.43361" lon="5.60293">
        <ele>368.8</ele>
        <time>2013-04-10T11:26:10Z</time>
      </trkpt>
      <trkpt lat="43.43354" lon="5.60298">
        <ele>369.2</ele>
        <time>2013-04-10T11:26:17Z</time>
      </trkpt>
      <trkpt lat="43.43347" lon="5.60302">
        <ele>369.5</ele>
        <time>2013-04-10T11:26:24Z</time>
      </trkpt>
      <trkpt lat="43.43339" lon="5.60305">
        <ele>369.8</ele>
        <time>2013-04-10T11:26:31Z</time>
      </trkpt>
      <trkpt lat="43.43331" lon="5.60309">
        <ele>370.3</ele>
        <time>2013-04-10T11:26:39Z</time>
      </trkpt>
      <trkpt lat="43.4333" lon="5.60309">
        <ele>370.5</ele>
        <time>2013-04-10T11:26:40Z</time>
      </trkpt>
      <trkpt lat="43.43315" lon="5.60316">
        <ele>372.7</ele>
        <time>2013-04-10T11:26:55Z</time>
      </trkpt>
      <trkpt lat="43.43307" lon="5.6032">
        <ele>375.1</ele>
        <time>2013-04-10T11:27:04Z</time>
      </trkpt>
      <trkpt lat="43.43299" lon="5.60324">
        <ele>376.3</ele>
        <time>2013-04-10T11:27:12Z</time>
      </trkpt>
      <trkpt lat="43.43291" lon="5.60329">
        <ele>378.2</ele>
        <time>2013-04-10T11:27:20Z</time>
      </trkpt>
      <trkpt lat="43.43283" lon="5.60335">
        <ele>379.1</ele>
        <time>2013-04-10T11:27:28Z</time>
      </trkpt>
      <trkpt lat="43.43276" lon="5.60341">
        <ele>380.2</ele>
        <time>2013-04-10T11:27:35Z</time>
      </trkpt>
      <trkpt lat="43.4327" lon="5.60348">
        <ele>381.2</ele>
        <time>2013-04-10T11:27:42Z</time>
      </trkpt>
      <trkpt lat="43.43269" lon="5.60349">
        <ele>381.3</ele>
        <time>2013-04-10T11:27:43Z</time>
      </trkpt>
      <trkpt lat="43.43257" lon="5.60364">
        <ele>382.6</ele>
        <time>2013-04-10T11:27:57Z</time>
      </trkpt>
      <trkpt lat="43.43252" lon="5.60372">
        <ele>382.5</ele>
        <time>2013-04-10T11:28:04Z</time>
      </trkpt>
      <trkpt lat="43.43245" lon="5.60379">
        <ele>382.7</ele>
        <time>2013-04-10T11:28:12Z</time>
      </trkpt>
      <trkpt lat="43.43238" lon="5.60386">
        <ele>384.1</ele>
        <time>2013-04-10T11:28:19Z</time>
      </trkpt>
      <trkpt lat="43.4323" lon="5.60392">
        <ele>381.5</ele>
        <time>2013-04-10T11:28:29Z</time>
      </trkpt>
      <trkpt lat="43.43224" lon="5.60399">
        <ele>379.2</ele>
        <time>2013-04-10T11:28:38Z</time>
      </trkpt>
      <trkpt lat="43.43217" lon="5.60405">
        <ele>379.1</ele>
        <time>2013-04-10T11:28:45Z</time>
      </trkpt>
      <trkpt lat="43.43216" lon="5.60406">
        <ele>379</ele>
        <time>2013-04-10T11:28:46Z</time>
      </trkpt>
      <trkpt lat="43.43204" lon="5.6042">
        <ele>379.1</ele>
        <time>2013-04-10T11:29:00Z</time>
      </trkpt>
      <trkpt lat="43.43199" lon="5.60431">
        <ele>378.8</ele>
        <time>2013-04-10T11:29:09Z</time>
      </trkpt>
      <trkpt lat="43.43194" lon="5.60438">
        <ele>377.7</ele>
        <time>2013-04-10T11:29:16Z</time>
      </trkpt>
      <trkpt lat="43.43187" lon="5.60444">
        <ele>379.1</ele>
        <time>2013-04-10T11:29:24Z</time>
      </trkpt>
      <trkpt lat="43.43179" lon="5.60447">
        <ele>382.6</ele>
        <time>2013-04-10T11:29:31Z</time>
      </trkpt>
      <trkpt lat="43.43171" lon="5.6045">
        <ele>385.2</ele>
        <time>2013-04-10T11:29:37Z</time>
      </trkpt>
      <trkpt lat="43.43163" lon="5.60454">
        <ele>386.2</ele>
        <time>2013-04-10T11:29:45Z</time>
      </trkpt>
      <trkpt lat="43.43155" lon="5.60457">
        <ele>385.3</ele>
        <time>2013-04-10T11:29:57Z</time>
      </trkpt>
      <trkpt lat="43.43154" lon="5.60458">
        <ele>385.3</ele>
        <time>2013-04-10T11:29:58Z</time>
      </trkpt>
      <trkpt lat="43.43139" lon="5.60463">
        <ele>384.8</ele>
        <time>2013-04-10T11:30:12Z</time>
      </trkpt>
      <trkpt lat="43.43132" lon="5.60467">
        <ele>385</ele>
        <time>2013-04-10T11:30:19Z</time>
      </trkpt>
      <trkpt lat="43.43124" lon="5.6047">
        <ele>386.2</ele>
        <time>2013-04-10T11:30:27Z</time>
      </trkpt>
      <trkpt lat="43.43117" lon="5.60474">
        <ele>387.2</ele>
        <time>2013-04-10T11:30:34Z</time>
      </trkpt>
      <trkpt lat="43.43109" lon="5.6048">
        <ele>388</ele>
        <time>2013-04-10T11:30:41Z</time>
      </trkpt>
      <trkpt lat="43.43102" lon="5.60487">
        <ele>388.6</ele>
        <time>2013-04-10T11:30:49Z</time>
      </trkpt>
      <trkpt lat="43.43096" lon="5.60494">
        <ele>389</ele>
        <time>2013-04-10T11:30:57Z</time>
      </trkpt>
      <trkpt lat="43.43089" lon="5.60501">
        <ele>389.5</ele>
        <time>2013-04-10T11:31:05Z</time>
      </trkpt>
      <trkpt lat="43.43088" lon="5.60502">
        <ele>389.7</ele>
        <time>2013-04-10T11:31:06Z</time>
      </trkpt>
      <trkpt lat="43.43074" lon="5.60508">
        <ele>392</ele>
        <time>2013-04-10T11:31:22Z</time>
      </trkpt>
      <trkpt lat="43.43066" lon="5.6051">
        <ele>393.1</ele>
        <time>2013-04-10T11:31:31Z</time>
      </trkpt>
      <trkpt lat="43.43057" lon="5.60513">
        <ele>393.3</ele>
        <time>2013-04-10T11:31:40Z</time>
      </trkpt>
      <trkpt lat="43.43049" lon="5.60517">
        <ele>394.3</ele>
        <time>2013-04-10T11:31:49Z</time>
      </trkpt>
      <trkpt lat="43.43041" lon="5.60521">
        <ele>394.3</ele>
        <time>2013-04-10T11:31:58Z</time>
      </trkpt>
      <trkpt lat="43.43033" lon="5.60526">
        <ele>395.2</ele>
        <time>2013-04-10T11:32:07Z</time>
      </trkpt>
      <trkpt lat="43.43032" lon="5.60526">
        <ele>395.2</ele>
        <time>2013-04-10T11:32:08Z</time>
      </trkpt>
      <trkpt lat="43.43017" lon="5.60534">
        <ele>396.2</ele>
        <time>2013-04-10T11:32:25Z</time>
      </trkpt>
      <trkpt lat="43.43009" lon="5.60537">
        <ele>396.2</ele>
        <time>2013-04-10T11:32:34Z</time>
      </trkpt>
      <trkpt lat="43.43" lon="5.6054">
        <ele>397.2</ele>
        <time>2013-04-10T11:32:44Z</time>
      </trkpt>
      <trkpt lat="43.42992" lon="5.60543">
        <ele>398.6</ele>
        <time>2013-04-10T11:32:53Z</time>
      </trkpt>
      <trkpt lat="43.42984" lon="5.60545">
        <ele>400.1</ele>
        <time>2013-04-10T11:33:01Z</time>
      </trkpt>
      <trkpt lat="43.42975" lon="5.60548">
        <ele>400.6</ele>
        <time>2013-04-10T11:33:09Z</time>
      </trkpt>
      <trkpt lat="43.42974" lon="5.60548">
        <ele>400.7</ele>
        <time>2013-04-10T11:33:10Z</time>
      </trkpt>
      <trkpt lat="43.42958" lon="5.60555">
        <ele>403.7</ele>
        <time>2013-04-10T11:33:27Z</time>
      </trkpt>
      <trkpt lat="43.42951" lon="5.60559">
        <ele>404.8</ele>
        <time>2013-04-10T11:33:35Z</time>
      </trkpt>
      <trkpt lat="43.42943" lon="5.60563">
        <ele>404.7</ele>
        <time>2013-04-10T11:33:43Z</time>
      </trkpt>
      <trkpt lat="43.42935" lon="5.60568">
        <ele>405.3</ele>
        <time>2013-04-10T11:33:51Z</time>
      </trkpt>
      <trkpt lat="43.42927" lon="5.60573">
        <ele>405.5</ele>
        <time>2013-04-10T11:33:59Z</time>
      </trkpt>
      <trkpt lat="43.42919" lon="5.60579">
        <ele>406</ele>
        <time>2013-04-10T11:34:06Z</time>
      </trkpt>
      <trkpt lat="43.42912" lon="5.60584">
        <ele>405.2</ele>
        <time>2013-04-10T11:34:13Z</time>
      </trkpt>
      <trkpt lat="43.42911" lon="5.60585">
        <ele>405.1</ele>
        <time>2013-04-10T11:34:14Z</time>
      </trkpt>
      <trkpt lat="43.42896" lon="5.60595">
        <ele>405.6</ele>
        <time>2013-04-10T11:34:29Z</time>
      </trkpt>
      <trkpt lat="43.42889" lon="5.60601">
        <ele>407</ele>
        <time>2013-04-10T11:34:37Z</time>
      </trkpt>
      <trkpt lat="43.42882" lon="5.60607">
        <ele>408.7</ele>
        <time>2013-04-10T11:34:46Z</time>
      </trkpt>
      <trkpt lat="43.42875" lon="5.60614">
        <ele>410</ele>
        <time>2013-04-10T11:34:54Z</time>
      </trkpt>
      <trkpt lat="43.42868" lon="5.60619">
        <ele>410.8</ele>
        <time>2013-04-10T11:35:02Z</time>
      </trkpt>
      <trkpt lat="43.4286" lon="5.60624">
        <ele>412.8</ele>
        <time>2013-04-10T11:35:11Z</time>
      </trkpt>
      <trkpt lat="43.42853" lon="5.6063">
        <ele>414</ele>
        <time>2013-04-10T11:35:19Z</time>
      </trkpt>
      <trkpt lat="43.42852" lon="5.60631">
        <ele>414</ele>
        <time>2013-04-10T11:35:20Z</time>
      </trkpt>
      <trkpt lat="43.42839" lon="5.60643">
        <ele>414.2</ele>
        <time>2013-04-10T11:35:33Z</time>
      </trkpt>
      <trkpt lat="43.42832" lon="5.60649">
        <ele>414.7</ele>
        <time>2013-04-10T11:35:40Z</time>
      </trkpt>
      <trkpt lat="43.42824" lon="5.60654">
        <ele>413.3</ele>
        <time>2013-04-10T11:35:47Z</time>
      </trkpt>
      <trkpt lat="43.42816" lon="5.60655">
        <ele>413.7</ele>
        <time>2013-04-10T11:35:54Z</time>
      </trkpt>
      <trkpt lat="43.42808" lon="5.60655">
        <ele>414.2</ele>
        <time>2013-04-10T11:36:01Z</time>
      </trkpt>
      <trkpt lat="43.42799" lon="5.60655">
        <ele>413</ele>
        <time>2013-04-10T11:36:09Z</time>
      </trkpt>
      <trkpt lat="43.42791" lon="5.60655">
        <ele>412.1</ele>
        <time>2013-04-10T11:36:16Z</time>
      </trkpt>
      <trkpt lat="43.42782" lon="5.60656">
        <ele>412.2</ele>
        <time>2013-04-10T11:36:23Z</time>
      </trkpt>
      <trkpt lat="43.42781" lon="5.60657">
        <ele>412.2</ele>
        <time>2013-04-10T11:36:24Z</time>
      </trkpt>
      <trkpt lat="43.42767" lon="5.60668">
        <ele>411.6</ele>
        <time>2013-04-10T11:36:39Z</time>
      </trkpt>
      <trkpt lat="43.42759" lon="5.60672">
        <ele>411.7</ele>
        <time>2013-04-10T11:36:47Z</time>
      </trkpt>
      <trkpt lat="43.42751" lon="5.60673">
        <ele>410.5</ele>
        <time>2013-04-10T11:36:53Z</time>
      </trkpt>
      <trkpt lat="43.42743" lon="5.6067">
        <ele>408.1</ele>
        <time>2013-04-10T11:37:02Z</time>
      </trkpt>
      <trkpt lat="43.42736" lon="5.60664">
        <ele>406.5</ele>
        <time>2013-04-10T11:37:12Z</time>
      </trkpt>
      <trkpt lat="43.42732" lon="5.60653">
        <ele>404.3</ele>
        <time>2013-04-10T11:37:22Z</time>
      </trkpt>
      <trkpt lat="43.42729" lon="5.60641">
        <ele>403.2</ele>
        <time>2013-04-10T11:37:31Z</time>
      </trkpt>
      <trkpt lat="43.42728" lon="5.60641">
        <ele>403.2</ele>
        <time>2013-04-10T11:37:32Z</time>
      </trkpt>
      <trkpt lat="43.42713" lon="5.60637">
        <ele>403</ele>
        <time>2013-04-10T11:37:45Z</time>
      </trkpt>
      <trkpt lat="43.42704" lon="5.60638">
        <ele>405</ele>
        <time>2013-04-10T11:37:52Z</time>
      </trkpt>
      <trkpt lat="43.42698" lon="5.60644">
        <ele>405.2</ele>
        <time>2013-04-10T11:37:58Z</time>
      </trkpt>
      <trkpt lat="43.42691" lon="5.60649">
        <ele>405.2</ele>
        <time>2013-04-10T11:38:04Z</time>
      </trkpt>
      <trkpt lat="43.42683" lon="5.60654">
        <ele>406</ele>
        <time>2013-04-10T11:38:11Z</time>
      </trkpt>
      <trkpt lat="43.42674" lon="5.60657">
        <ele>406.2</ele>
        <time>2013-04-10T11:38:19Z</time>
      </trkpt>
      <trkpt lat="43.42666" lon="5.60658">
        <ele>407.7</ele>
        <time>2013-04-10T11:38:26Z</time>
      </trkpt>
      <trkpt lat="43.42657" lon="5.60656">
        <ele>410.2</ele>
        <time>2013-04-10T11:38:36Z</time>
      </trkpt>
      <trkpt lat="43.42656" lon="5.60656">
        <ele>410.2</ele>
        <time>2013-04-10T11:38:37Z</time>
      </trkpt>
      <trkpt lat="43.42643" lon="5.60645">
        <ele>405.5</ele>
        <time>2013-04-10T11:38:55Z</time>
      </trkpt>
      <trkpt lat="43.42635" lon="5.60639">
        <ele>402.5</ele>
        <time>2013-04-10T11:39:03Z</time>
      </trkpt>
      <trkpt lat="43.42627" lon="5.60635">
        <ele>403.7</ele>
        <time>2013-04-10T11:39:10Z</time>
      </trkpt>
      <trkpt lat="43.42619" lon="5.60631">
        <ele>404.1</ele>
        <time>2013-04-10T11:39:16Z</time>
      </trkpt>
      <trkpt lat="43.42611" lon="5.60627">
        <ele>404.6</ele>
        <time>2013-04-10T11:39:23Z</time>
      </trkpt>
      <trkpt lat="43.42603" lon="5.60623">
        <ele>404.2</ele>
        <time>2013-04-10T11:39:30Z</time>
      </trkpt>
      <trkpt lat="43.42595" lon="5.60619">
        <ele>405.8</ele>
        <time>2013-04-10T11:39:37Z</time>
      </trkpt>
      <trkpt lat="43.42595" lon="5.60618">
        <ele>405.7</ele>
        <time>2013-04-10T11:39:38Z</time>
      </trkpt>
      <trkpt lat="43.42579" lon="5.60612">
        <ele>406.2</ele>
        <time>2013-04-10T11:39:54Z</time>
      </trkpt>
      <trkpt lat="43.42571" lon="5.6061">
        <ele>407.3</ele>
        <time>2013-04-10T11:40:00Z</time>
      </trkpt>
      <trkpt lat="43.42562" lon="5.6061">
        <ele>407.8</ele>
        <time>2013-04-10T11:40:07Z</time>
      </trkpt>
      <trkpt lat="43.42554" lon="5.6061">
        <ele>407.7</ele>
        <time>2013-04-10T11:40:15Z</time>
      </trkpt>
      <trkpt lat="43.42545" lon="5.6061">
        <ele>406.8</ele>
        <time>2013-04-10T11:40:23Z</time>
      </trkpt>
      <trkpt lat="43.42537" lon="5.6061">
        <ele>407.1</ele>
        <time>2013-04-10T11:40:31Z</time>
      </trkpt>
      <trkpt lat="43.42528" lon="5.60607">
        <ele>403.6</ele>
        <time>2013-04-10T11:40:40Z</time>
      </trkpt>
      <trkpt lat="43.42527" lon="5.60607">
        <ele>403.8</ele>
        <time>2013-04-10T11:40:41Z</time>
      </trkpt>
      <trkpt lat="43.42512" lon="5.60607">
        <ele>409</ele>
        <time>2013-04-10T11:40:54Z</time>
      </trkpt>
      <trkpt lat="43.42504" lon="5.60608">
        <ele>410</ele>
        <time>2013-04-10T11:40:59Z</time>
      </trkpt>
      <trkpt lat="43.42496" lon="5.60611">
        <ele>410.8</ele>
        <time>2013-04-10T11:41:06Z</time>
      </trkpt>
      <trkpt lat="43.42488" lon="5.60613">
        <ele>412.3</ele>
        <time>2013-04-10T11:41:13Z</time>
      </trkpt>
      <trkpt lat="43.4248" lon="5.60615">
        <ele>414.1</ele>
        <time>2013-04-10T11:41:20Z</time>
      </trkpt>
      <trkpt lat="43.42472" lon="5.60617">
        <ele>415.7</ele>
        <time>2013-04-10T11:41:28Z</time>
      </trkpt>
      <trkpt lat="43.42464" lon="5.6062">
        <ele>416.3</ele>
        <time>2013-04-10T11:41:36Z</time>
      </trkpt>
      <trkpt lat="43.42455" lon="5.60621">
        <ele>414.7</ele>
        <time>2013-04-10T11:41:44Z</time>
      </trkpt>
      <trkpt lat="43.42454" lon="5.60621">
        <ele>414</ele>
        <time>2013-04-10T11:41:45Z</time>
      </trkpt>
      <trkpt lat="43.4244" lon="5.60623">
        <ele>411.2</ele>
        <time>2013-04-10T11:41:58Z</time>
      </trkpt>
      <trkpt lat="43.42431" lon="5.60624">
        <ele>411.7</ele>
        <time>2013-04-10T11:42:07Z</time>
      </trkpt>
      <trkpt lat="43.42422" lon="5.60627">
        <ele>411.7</ele>
        <time>2013-04-10T11:42:15Z</time>
      </trkpt>
      <trkpt lat="43.42415" lon="5.60628">
        <ele>411.8</ele>
        <time>2013-04-10T11:42:23Z</time>
      </trkpt>
      <trkpt lat="43.42406" lon="5.60628">
        <ele>414</ele>
        <time>2013-04-10T11:42:31Z</time>
      </trkpt>
      <trkpt lat="43.42398" lon="5.60627">
        <ele>414.1</ele>
        <time>2013-04-10T11:42:39Z</time>
      </trkpt>
      <trkpt lat="43.4239" lon="5.60626">
        <ele>411.6</ele>
        <time>2013-04-10T11:42:47Z</time>
      </trkpt>
      <trkpt lat="43.42389" lon="5.60626">
        <ele>411.6</ele>
        <time>2013-04-10T11:42:48Z</time>
      </trkpt>
      <trkpt lat="43.42373" lon="5.60625">
        <ele>416.6</ele>
        <time>2013-04-10T11:43:02Z</time>
      </trkpt>
      <trkpt lat="43.42365" lon="5.60628">
        <ele>420.7</ele>
        <time>2013-04-10T11:43:10Z</time>
      </trkpt>
      <trkpt lat="43.42357" lon="5.60634">
        <ele>424.3</ele>
        <time>2013-04-10T11:43:19Z</time>
      </trkpt>
      <trkpt lat="43.42351" lon="5.60642">
        <ele>425.3</ele>
        <time>2013-04-10T11:43:28Z</time>
      </trkpt>
      <trkpt lat="43.42345" lon="5.60651">
        <ele>423.8</ele>
        <time>2013-04-10T11:43:35Z</time>
      </trkpt>
      <trkpt lat="43.4234" lon="5.6066">
        <ele>424</ele>
        <time>2013-04-10T11:43:42Z</time>
      </trkpt>
      <trkpt lat="43.42335" lon="5.6067">
        <ele>425.2</ele>
        <time>2013-04-10T11:43:49Z</time>
      </trkpt>
      <trkpt lat="43.42335" lon="5.60672">
        <ele>425.2</ele>
        <time>2013-04-10T11:43:50Z</time>
      </trkpt>
      <trkpt lat="43.42328" lon="5.60691">
        <ele>421.2</ele>
        <time>2013-04-10T11:44:04Z</time>
      </trkpt>
      <trkpt lat="43.42322" lon="5.60699">
        <ele>421.2</ele>
        <time>2013-04-10T11:44:11Z</time>
      </trkpt>
      <trkpt lat="43.42315" lon="5.60706">
        <ele>421.8</ele>
        <time>2013-04-10T11:44:19Z</time>
      </trkpt>
      <trkpt lat="43.42308" lon="5.60714">
        <ele>416.5</ele>
        <time>2013-04-10T11:44:26Z</time>
      </trkpt>
      <trkpt lat="43.42302" lon="5.60722">
        <ele>413.7</ele>
        <time>2013-04-10T11:44:34Z</time>
      </trkpt>
      <trkpt lat="43.42298" lon="5.6073">
        <ele>411.7</ele>
        <time>2013-04-10T11:44:41Z</time>
      </trkpt>
      <trkpt lat="43.42293" lon="5.60738">
        <ele>413.8</ele>
        <time>2013-04-10T11:44:47Z</time>
      </trkpt>
      <trkpt lat="43.42288" lon="5.60747">
        <ele>414.3</ele>
        <time>2013-04-10T11:44:53Z</time>
      </trkpt>
      <trkpt lat="43.42287" lon="5.60749">
        <ele>414.5</ele>
        <time>2013-04-10T11:44:54Z</time>
      </trkpt>
      <trkpt lat="43.4228" lon="5.60767">
        <ele>414.1</ele>
        <time>2013-04-10T11:45:30Z</time>
      </trkpt>
      <trkpt lat="43.42275" lon="5.60776">
        <ele>413</ele>
        <time>2013-04-10T11:45:40Z</time>
      </trkpt>
      <trkpt lat="43.42268" lon="5.60783">
        <ele>414.2</ele>
        <time>2013-04-10T11:45:47Z</time>
      </trkpt>
      <trkpt lat="43.42261" lon="5.6079">
        <ele>415.7</ele>
        <time>2013-04-10T11:45:54Z</time>
      </trkpt>
      <trkpt lat="43.4226" lon="5.60792">
        <ele>415.7</ele>
        <time>2013-04-10T11:45:55Z</time>
      </trkpt>
      <trkpt lat="43.42248" lon="5.60805">
        <ele>416</ele>
        <time>2013-04-10T11:46:08Z</time>
      </trkpt>
      <trkpt lat="43.42242" lon="5.60812">
        <ele>416.2</ele>
        <time>2013-04-10T11:46:15Z</time>
      </trkpt>
      <trkpt lat="43.42236" lon="5.60821">
        <ele>416.7</ele>
        <time>2013-04-10T11:46:23Z</time>
      </trkpt>
      <trkpt lat="43.42232" lon="5.60832">
        <ele>418.6</ele>
        <time>2013-04-10T11:46:32Z</time>
      </trkpt>
      <trkpt lat="43.42229" lon="5.60843">
        <ele>420.3</ele>
        <time>2013-04-10T11:46:40Z</time>
      </trkpt>
      <trkpt lat="43.42226" lon="5.60854">
        <ele>420.7</ele>
        <time>2013-04-10T11:46:48Z</time>
      </trkpt>
      <trkpt lat="43.42221" lon="5.60864">
        <ele>419.7</ele>
        <time>2013-04-10T11:46:55Z</time>
      </trkpt>
      <trkpt lat="43.42221" lon="5.60865">
        <ele>419.7</ele>
        <time>2013-04-10T11:46:56Z</time>
      </trkpt>
      <trkpt lat="43.42211" lon="5.60881">
        <ele>420.5</ele>
        <time>2013-04-10T11:47:09Z</time>
      </trkpt>
      <trkpt lat="43.42205" lon="5.60889">
        <ele>420.3</ele>
        <time>2013-04-10T11:47:16Z</time>
      </trkpt>
      <trkpt lat="43.42199" lon="5.60897">
        <ele>419.7</ele>
        <time>2013-04-10T11:47:23Z</time>
      </trkpt>
      <trkpt lat="43.42192" lon="5.60903">
        <ele>418.5</ele>
        <time>2013-04-10T11:47:31Z</time>
      </trkpt>
      <trkpt lat="43.42185" lon="5.60912">
        <ele>418.6</ele>
        <time>2013-04-10T11:47:39Z</time>
      </trkpt>
      <trkpt lat="43.42179" lon="5.60918">
        <ele>420.2</ele>
        <time>2013-04-10T11:47:45Z</time>
      </trkpt>
      <trkpt lat="43.42171" lon="5.60924">
        <ele>420</ele>
        <time>2013-04-10T11:47:52Z</time>
      </trkpt>
      <trkpt lat="43.42164" lon="5.60928">
        <ele>420.8</ele>
        <time>2013-04-10T11:47:59Z</time>
      </trkpt>
      <trkpt lat="43.42163" lon="5.60929">
        <ele>421</ele>
        <time>2013-04-10T11:48:00Z</time>
      </trkpt>
      <trkpt lat="43.42147" lon="5.60932">
        <ele>417.7</ele>
        <time>2013-04-10T11:48:17Z</time>
      </trkpt>
      <trkpt lat="43.42139" lon="5.6093">
        <ele>416</ele>
        <time>2013-04-10T11:48:25Z</time>
      </trkpt>
      <trkpt lat="43.42131" lon="5.60928">
        <ele>416.3</ele>
        <time>2013-04-10T11:48:32Z</time>
      </trkpt>
      <trkpt lat="43.42123" lon="5.60926">
        <ele>416.5</ele>
        <time>2013-04-10T11:48:39Z</time>
      </trkpt>
      <trkpt lat="43.42114" lon="5.60926">
        <ele>419.1</ele>
        <time>2013-04-10T11:48:45Z</time>
      </trkpt>
      <trkpt lat="43.42106" lon="5.60928">
        <ele>420.7</ele>
        <time>2013-04-10T11:48:51Z</time>
      </trkpt>
      <trkpt lat="43.42097" lon="5.6093">
        <ele>420.7</ele>
        <time>2013-04-10T11:48:58Z</time>
      </trkpt>
      <trkpt lat="43.42089" lon="5.60932">
        <ele>421</ele>
        <time>2013-04-10T11:49:05Z</time>
      </trkpt>
      <trkpt lat="43.42087" lon="5.60932">
        <ele>421</ele>
        <time>2013-04-10T11:49:06Z</time>
      </trkpt>
      <trkpt lat="43.42073" lon="5.60937">
        <ele>419.6</ele>
        <time>2013-04-10T11:49:19Z</time>
      </trkpt>
      <trkpt lat="43.42064" lon="5.6094">
        <ele>420</ele>
        <time>2013-04-10T11:49:26Z</time>
      </trkpt>
      <trkpt lat="43.42055" lon="5.60943">
        <ele>420.3</ele>
        <time>2013-04-10T11:49:33Z</time>
      </trkpt>
      <trkpt lat="43.42047" lon="5.60945">
        <ele>421.1</ele>
        <time>2013-04-10T11:49:40Z</time>
      </trkpt>
      <trkpt lat="43.42039" lon="5.60945">
        <ele>421.2</ele>
        <time>2013-04-10T11:49:48Z</time>
      </trkpt>
      <trkpt lat="43.42031" lon="5.60945">
        <ele>423.2</ele>
        <time>2013-04-10T11:49:56Z</time>
      </trkpt>
      <trkpt lat="43.42023" lon="5.60942">
        <ele>422.6</ele>
        <time>2013-04-10T11:50:03Z</time>
      </trkpt>
      <trkpt lat="43.42014" lon="5.6094">
        <ele>422.7</ele>
        <time>2013-04-10T11:50:10Z</time>
      </trkpt>
      <trkpt lat="43.42013" lon="5.6094">
        <ele>422.6</ele>
        <time>2013-04-10T11:50:11Z</time>
      </trkpt>
      <trkpt lat="43.41998" lon="5.60939">
        <ele>424.7</ele>
        <time>2013-04-10T11:50:23Z</time>
      </trkpt>
      <trkpt lat="43.41989" lon="5.60938">
        <ele>427.3</ele>
        <time>2013-04-10T11:50:29Z</time>
      </trkpt>
      <trkpt lat="43.41981" lon="5.6094">
        <ele>427.7</ele>
        <time>2013-04-10T11:50:36Z</time>
      </trkpt>
      <trkpt lat="43.41973" lon="5.60943">
        <ele>430.7</ele>
        <time>2013-04-10T11:50:43Z</time>
      </trkpt>
      <trkpt lat="43.41965" lon="5.60948">
        <ele>429.3</ele>
        <time>2013-04-10T11:50:51Z</time>
      </trkpt>
      <trkpt lat="43.41957" lon="5.60953">
        <ele>425.7</ele>
        <time>2013-04-10T11:50:58Z</time>
      </trkpt>
      <trkpt lat="43.4195" lon="5.6096">
        <ele>424.2</ele>
        <time>2013-04-10T11:51:06Z</time>
      </trkpt>
      <trkpt lat="43.41944" lon="5.60967">
        <ele>424.3</ele>
        <time>2013-04-10T11:51:14Z</time>
      </trkpt>
      <trkpt lat="43.41943" lon="5.60968">
        <ele>424.7</ele>
        <time>2013-04-10T11:51:15Z</time>
      </trkpt>
      <trkpt lat="43.41932" lon="5.60984">
        <ele>428.7</ele>
        <time>2013-04-10T11:51:30Z</time>
      </trkpt>
      <trkpt lat="43.41924" lon="5.60989">
        <ele>431.2</ele>
        <time>2013-04-10T11:51:37Z</time>
      </trkpt>
      <trkpt lat="43.41916" lon="5.60991">
        <ele>433.8</ele>
        <time>2013-04-10T11:51:45Z</time>
      </trkpt>
      <trkpt lat="43.41907" lon="5.60994">
        <ele>432.1</ele>
        <time>2013-04-10T11:51:53Z</time>
      </trkpt>
      <trkpt lat="43.41899" lon="5.60997">
        <ele>430.2</ele>
        <time>2013-04-10T11:52:02Z</time>
      </trkpt>
      <trkpt lat="43.41891" lon="5.60999">
        <ele>430.2</ele>
        <time>2013-04-10T11:52:12Z</time>
      </trkpt>
      <trkpt lat="43.41883" lon="5.60994">
        <ele>431.7</ele>
        <time>2013-04-10T11:52:30Z</time>
      </trkpt>
      <trkpt lat="43.41883" lon="5.60993">
        <ele>431.8</ele>
        <time>2013-04-10T11:52:31Z</time>
      </trkpt>
      <trkpt lat="43.41866" lon="5.60995">
        <ele>430.2</ele>
        <time>2013-04-10T11:53:07Z</time>
      </trkpt>
      <trkpt lat="43.41868" lon="5.61006">
        <ele>422</ele>
        <time>2013-04-10T11:54:41Z</time>
      </trkpt>
      <trkpt lat="43.41867" lon="5.61007">
        <ele>421.5</ele>
        <time>2013-04-10T11:54:42Z</time>
      </trkpt>
      <trkpt lat="43.4187" lon="5.6103">
        <ele>414.8</ele>
        <time>2013-04-10T11:55:00Z</time>
      </trkpt>
      <trkpt lat="43.4187" lon="5.61043">
        <ele>411.7</ele>
        <time>2013-04-10T11:55:10Z</time>
      </trkpt>
      <trkpt lat="43.41868" lon="5.61054">
        <ele>415.2</ele>
        <time>2013-04-10T11:55:17Z</time>
      </trkpt>
      <trkpt lat="43.4187" lon="5.61066">
        <ele>410.7</ele>
        <time>2013-04-10T11:55:31Z</time>
      </trkpt>
      <trkpt lat="43.4187" lon="5.61078">
        <ele>413.2</ele>
        <time>2013-04-10T11:55:40Z</time>
      </trkpt>
      <trkpt lat="43.4187" lon="5.61089">
        <ele>423.2</ele>
        <time>2013-04-10T11:56:16Z</time>
      </trkpt>
      <trkpt lat="43.4187" lon="5.61091">
        <ele>423.5</ele>
        <time>2013-04-10T11:56:17Z</time>
      </trkpt>
      <trkpt lat="43.41871" lon="5.61113">
        <ele>421.7</ele>
        <time>2013-04-10T11:56:32Z</time>
      </trkpt>
      <trkpt lat="43.4187" lon="5.61125">
        <ele>422.7</ele>
        <time>2013-04-10T11:57:00Z</time>
      </trkpt>
      <trkpt lat="43.41871" lon="5.61137">
        <ele>421.8</ele>
        <time>2013-04-10T11:57:11Z</time>
      </trkpt>
      <trkpt lat="43.41873" lon="5.61148">
        <ele>421.7</ele>
        <time>2013-04-10T11:57:20Z</time>
      </trkpt>
      <trkpt lat="43.41873" lon="5.61149">
        <ele>421.5</ele>
        <time>2013-04-10T11:57:21Z</time>
      </trkpt>
      <trkpt lat="43.41875" lon="5.61173">
        <ele>425.1</ele>
        <time>2013-04-10T11:57:43Z</time>
      </trkpt>
      <trkpt lat="43.41873" lon="5.61184">
        <ele>425</ele>
        <time>2013-04-10T11:57:51Z</time>
      </trkpt>
      <trkpt lat="43.41873" lon="5.61195">
        <ele>425.7</ele>
        <time>2013-04-10T11:57:59Z</time>
      </trkpt>
      <trkpt lat="43.41875" lon="5.61206">
        <ele>425.3</ele>
        <time>2013-04-10T11:58:07Z</time>
      </trkpt>
      <trkpt lat="43.41876" lon="5.61218">
        <ele>425.7</ele>
        <time>2013-04-10T11:58:18Z</time>
      </trkpt>
      <trkpt lat="43.41878" lon="5.61229">
        <ele>424.7</ele>
        <time>2013-04-10T11:58:28Z</time>
      </trkpt>
      <trkpt lat="43.41879" lon="5.61231">
        <ele>424.3</ele>
        <time>2013-04-10T11:58:29Z</time>
      </trkpt>
      <trkpt lat="43.41881" lon="5.61252">
        <ele>424.6</ele>
        <time>2013-04-10T11:58:44Z</time>
      </trkpt>
      <trkpt lat="43.41883" lon="5.61263">
        <ele>424.7</ele>
        <time>2013-04-10T11:58:53Z</time>
      </trkpt>
      <trkpt lat="43.41884" lon="5.61275">
        <ele>424.7</ele>
        <time>2013-04-10T11:59:02Z</time>
      </trkpt>
      <trkpt lat="43.41885" lon="5.61286">
        <ele>422.2</ele>
        <time>2013-04-10T11:59:13Z</time>
      </trkpt>
      <trkpt lat="43.41886" lon="5.61298">
        <ele>421</ele>
        <time>2013-04-10T11:59:21Z</time>
      </trkpt>
      <trkpt lat="43.41887" lon="5.6131">
        <ele>420.7</ele>
        <time>2013-04-10T11:59:28Z</time>
      </trkpt>
      <trkpt lat="43.41887" lon="5.61321">
        <ele>421.2</ele>
        <time>2013-04-10T11:59:38Z</time>
      </trkpt>
      <trkpt lat="43.41887" lon="5.61322">
        <ele>421.5</ele>
        <time>2013-04-10T11:59:39Z</time>
      </trkpt>
      <trkpt lat="43.41889" lon="5.61344">
        <ele>426.2</ele>
        <time>2013-04-10T11:59:56Z</time>
      </trkpt>
      <trkpt lat="43.41898" lon="5.61349">
        <ele>425.2</ele>
        <time>2013-04-10T12:01:11Z</time>
      </trkpt>
      <trkpt lat="43.41898" lon="5.61348">
        <ele>425</ele>
        <time>2013-04-10T12:01:12Z</time>
      </trkpt>
      <trkpt lat="43.41893" lon="5.6136">
        <ele>423.7</ele>
        <time>2013-04-10T12:04:17Z</time>
      </trkpt>
      <trkpt lat="43.41898" lon="5.61382">
        <ele>426.6</ele>
        <time>2013-04-10T12:04:51Z</time>
      </trkpt>
      <trkpt lat="43.41899" lon="5.61394">
        <ele>427.7</ele>
        <time>2013-04-10T12:05:00Z</time>
      </trkpt>
      <trkpt lat="43.41899" lon="5.61405">
        <ele>429.6</ele>
        <time>2013-04-10T12:05:08Z</time>
      </trkpt>
      <trkpt lat="43.41901" lon="5.61416">
        <ele>430.2</ele>
        <time>2013-04-10T12:05:16Z</time>
      </trkpt>
      <trkpt lat="43.41901" lon="5.61428">
        <ele>430.1</ele>
        <time>2013-04-10T12:05:24Z</time>
      </trkpt>
      <trkpt lat="43.41901" lon="5.6143">
        <ele>429.8</ele>
        <time>2013-04-10T12:05:25Z</time>
      </trkpt>
      <trkpt lat="43.419" lon="5.61452">
        <ele>428.2</ele>
        <time>2013-04-10T12:05:44Z</time>
      </trkpt>
      <trkpt lat="43.41896" lon="5.61462">
        <ele>430.1</ele>
        <time>2013-04-10T12:05:53Z</time>
      </trkpt>
      <trkpt lat="43.41894" lon="5.61473">
        <ele>430.1</ele>
        <time>2013-04-10T12:06:02Z</time>
      </trkpt>
      <trkpt lat="43.41892" lon="5.61484">
        <ele>429.8</ele>
        <time>2013-04-10T12:06:11Z</time>
      </trkpt>
      <trkpt lat="43.41891" lon="5.61496">
        <ele>429.6</ele>
        <time>2013-04-10T12:06:21Z</time>
      </trkpt>
      <trkpt lat="43.41889" lon="5.61507">
        <ele>429.3</ele>
        <time>2013-04-10T12:06:28Z</time>
      </trkpt>
      <trkpt lat="43.41889" lon="5.61509">
        <ele>429.5</ele>
        <time>2013-04-10T12:06:29Z</time>
      </trkpt>
      <trkpt lat="43.41886" lon="5.6153">
        <ele>431.7</ele>
        <time>2013-04-10T12:06:45Z</time>
      </trkpt>
      <trkpt lat="43.41885" lon="5.61541">
        <ele>432.6</ele>
        <time>2013-04-10T12:06:52Z</time>
      </trkpt>
      <trkpt lat="43.41884" lon="5.61553">
        <ele>432.5</ele>
        <time>2013-04-10T12:07:00Z</time>
      </trkpt>
      <trkpt lat="43.41883" lon="5.61565">
        <ele>434.1</ele>
        <time>2013-04-10T12:07:08Z</time>
      </trkpt>
      <trkpt lat="43.41881" lon="5.61576">
        <ele>435.6</ele>
        <time>2013-04-10T12:07:16Z</time>
      </trkpt>
      <trkpt lat="43.4188" lon="5.61588">
        <ele>436.7</ele>
        <time>2013-04-10T12:07:24Z</time>
      </trkpt>
      <trkpt lat="43.41879" lon="5.61599">
        <ele>437.2</ele>
        <time>2013-04-10T12:07:31Z</time>
      </trkpt>
      <trkpt lat="43.41878" lon="5.61601">
        <ele>437.2</ele>
        <time>2013-04-10T12:07:32Z</time>
      </trkpt>
      <trkpt lat="43.41875" lon="5.61621">
        <ele>436.7</ele>
        <time>2013-04-10T12:07:45Z</time>
      </trkpt>
      <trkpt lat="43.41874" lon="5.61632">
        <ele>436.2</ele>
        <time>2013-04-10T12:07:52Z</time>
      </trkpt>
      <trkpt lat="43.41872" lon="5.61643">
        <ele>436.7</ele>
        <time>2013-04-10T12:07:59Z</time>
      </trkpt>
      <trkpt lat="43.4187" lon="5.61655">
        <ele>437.3</ele>
        <time>2013-04-10T12:08:06Z</time>
      </trkpt>
      <trkpt lat="43.41869" lon="5.61666">
        <ele>438.1</ele>
        <time>2013-04-10T12:08:13Z</time>
      </trkpt>
      <trkpt lat="43.41868" lon="5.61677">
        <ele>438.3</ele>
        <time>2013-04-10T12:08:20Z</time>
      </trkpt>
      <trkpt lat="43.41866" lon="5.61689">
        <ele>439.2</ele>
        <time>2013-04-10T12:08:28Z</time>
      </trkpt>
      <trkpt lat="43.41864" lon="5.617">
        <ele>439.6</ele>
        <time>2013-04-10T12:08:41Z</time>
      </trkpt>
      <trkpt lat="43.41863" lon="5.61702">
        <ele>439.5</ele>
        <time>2013-04-10T12:08:42Z</time>
      </trkpt>
      <trkpt lat="43.41861" lon="5.61723">
        <ele>435.7</ele>
        <time>2013-04-10T12:08:56Z</time>
      </trkpt>
      <trkpt lat="43.4186" lon="5.61735">
        <ele>436.7</ele>
        <time>2013-04-10T12:09:04Z</time>
      </trkpt>
      <trkpt lat="43.41859" lon="5.61746">
        <ele>438</ele>
        <time>2013-04-10T12:09:12Z</time>
      </trkpt>
      <trkpt lat="43.41858" lon="5.61757">
        <ele>439.3</ele>
        <time>2013-04-10T12:09:19Z</time>
      </trkpt>
      <trkpt lat="43.41858" lon="5.61768">
        <ele>439.5</ele>
        <time>2013-04-10T12:09:26Z</time>
      </trkpt>
      <trkpt lat="43.41858" lon="5.6178">
        <ele>440.7</ele>
        <time>2013-04-10T12:09:34Z</time>
      </trkpt>
      <trkpt lat="43.41855" lon="5.61792">
        <ele>442</ele>
        <time>2013-04-10T12:09:42Z</time>
      </trkpt>
      <trkpt lat="43.41855" lon="5.61793">
        <ele>442.2</ele>
        <time>2013-04-10T12:09:43Z</time>
      </trkpt>
      <trkpt lat="43.41851" lon="5.61814">
        <ele>444.2</ele>
        <time>2013-04-10T12:09:57Z</time>
      </trkpt>
      <trkpt lat="43.41849" lon="5.61826">
        <ele>443.8</ele>
        <time>2013-04-10T12:10:05Z</time>
      </trkpt>
      <trkpt lat="43.41847" lon="5.61837">
        <ele>442.6</ele>
        <time>2013-04-10T12:10:12Z</time>
      </trkpt>
      <trkpt lat="43.41846" lon="5.61849">
        <ele>442.1</ele>
        <time>2013-04-10T12:10:19Z</time>
      </trkpt>
      <trkpt lat="43.41843" lon="5.6186">
        <ele>441.5</ele>
        <time>2013-04-10T12:10:26Z</time>
      </trkpt>
      <trkpt lat="43.41841" lon="5.61871">
        <ele>442.6</ele>
        <time>2013-04-10T12:10:33Z</time>
      </trkpt>
      <trkpt lat="43.41838" lon="5.61882">
        <ele>443.5</ele>
        <time>2013-04-10T12:10:41Z</time>
      </trkpt>
      <trkpt lat="43.41837" lon="5.61893">
        <ele>444.1</ele>
        <time>2013-04-10T12:10:48Z</time>
      </trkpt>
      <trkpt lat="43.41836" lon="5.61895">
        <ele>443.7</ele>
        <time>2013-04-10T12:10:49Z</time>
      </trkpt>
      <trkpt lat="43.41833" lon="5.61914">
        <ele>445.7</ele>
        <time>2013-04-10T12:11:02Z</time>
      </trkpt>
      <trkpt lat="43.41832" lon="5.61925">
        <ele>446.2</ele>
        <time>2013-04-10T12:11:09Z</time>
      </trkpt>
      <trkpt lat="43.4183" lon="5.61937">
        <ele>446.5</ele>
        <time>2013-04-10T12:11:17Z</time>
      </trkpt>
      <trkpt lat="43.41829" lon="5.61948">
        <ele>446.2</ele>
        <time>2013-04-10T12:11:24Z</time>
      </trkpt>
      <trkpt lat="43.41827" lon="5.6196">
        <ele>446.2</ele>
        <time>2013-04-10T12:11:32Z</time>
      </trkpt>
      <trkpt lat="43.41825" lon="5.61971">
        <ele>446.6</ele>
        <time>2013-04-10T12:11:40Z</time>
      </trkpt>
      <trkpt lat="43.41823" lon="5.61983">
        <ele>444.7</ele>
        <time>2013-04-10T12:11:48Z</time>
      </trkpt>
      <trkpt lat="43.41823" lon="5.61995">
        <ele>445.1</ele>
        <time>2013-04-10T12:11:57Z</time>
      </trkpt>
      <trkpt lat="43.41823" lon="5.61996">
        <ele>445.2</ele>
        <time>2013-04-10T12:11:58Z</time>
      </trkpt>
      <trkpt lat="43.41822" lon="5.62019">
        <ele>446.2</ele>
        <time>2013-04-10T12:12:16Z</time>
      </trkpt>
      <trkpt lat="43.41824" lon="5.6203">
        <ele>444.6</ele>
        <time>2013-04-10T12:12:24Z</time>
      </trkpt>
      <trkpt lat="43.41827" lon="5.62041">
        <ele>444.6</ele>
        <time>2013-04-10T12:12:32Z</time>
      </trkpt>
      <trkpt lat="43.41829" lon="5.62052">
        <ele>444</ele>
        <time>2013-04-10T12:12:40Z</time>
      </trkpt>
      <trkpt lat="43.41831" lon="5.62064">
        <ele>443.8</ele>
        <time>2013-04-10T12:12:48Z</time>
      </trkpt>
      <trkpt lat="43.41834" lon="5.62075">
        <ele>443.1</ele>
        <time>2013-04-10T12:12:56Z</time>
      </trkpt>
      <trkpt lat="43.41836" lon="5.62087">
        <ele>441.2</ele>
        <time>2013-04-10T12:13:03Z</time>
      </trkpt>
      <trkpt lat="43.41836" lon="5.62088">
        <ele>441</ele>
        <time>2013-04-10T12:13:04Z</time>
      </trkpt>
      <trkpt lat="43.41841" lon="5.62108">
        <ele>438.3</ele>
        <time>2013-04-10T12:13:17Z</time>
      </trkpt>
      <trkpt lat="43.41842" lon="5.62119">
        <ele>438.1</ele>
        <time>2013-04-10T12:13:24Z</time>
      </trkpt>
      <trkpt lat="43.41842" lon="5.6213">
        <ele>438.8</ele>
        <time>2013-04-10T12:13:32Z</time>
      </trkpt>
      <trkpt lat="43.4184" lon="5.62142">
        <ele>439.6</ele>
        <time>2013-04-10T12:13:42Z</time>
      </trkpt>
      <trkpt lat="43.41836" lon="5.62151">
        <ele>439.8</ele>
        <time>2013-04-10T12:13:50Z</time>
      </trkpt>
      <trkpt lat="43.41833" lon="5.62162">
        <ele>441.2</ele>
        <time>2013-04-10T12:13:58Z</time>
      </trkpt>
      <trkpt lat="43.41831" lon="5.62173">
        <ele>442.3</ele>
        <time>2013-04-10T12:14:06Z</time>
      </trkpt>
      <trkpt lat="43.4183" lon="5.62175">
        <ele>442.3</ele>
        <time>2013-04-10T12:14:07Z</time>
      </trkpt>
      <trkpt lat="43.41826" lon="5.62196">
        <ele>440.2</ele>
        <time>2013-04-10T12:14:23Z</time>
      </trkpt>
      <trkpt lat="43.41821" lon="5.62205">
        <ele>441.6</ele>
        <time>2013-04-10T12:14:32Z</time>
      </trkpt>
      <trkpt lat="43.41816" lon="5.62214">
        <ele>442.8</ele>
        <time>2013-04-10T12:14:40Z</time>
      </trkpt>
      <trkpt lat="43.4181" lon="5.62224">
        <ele>442.8</ele>
        <time>2013-04-10T12:14:49Z</time>
      </trkpt>
      <trkpt lat="43.41804" lon="5.62233">
        <ele>443.2</ele>
        <time>2013-04-10T12:14:57Z</time>
      </trkpt>
      <trkpt lat="43.418" lon="5.62242">
        <ele>444.7</ele>
        <time>2013-04-10T12:15:04Z</time>
      </trkpt>
      <trkpt lat="43.41795" lon="5.62251">
        <ele>446.3</ele>
        <time>2013-04-10T12:15:11Z</time>
      </trkpt>
      <trkpt lat="43.41794" lon="5.62252">
        <ele>446.7</ele>
        <time>2013-04-10T12:15:12Z</time>
      </trkpt>
      <trkpt lat="43.41784" lon="5.62268">
        <ele>449.1</ele>
        <time>2013-04-10T12:15:25Z</time>
      </trkpt>
      <trkpt lat="43.41778" lon="5.62276">
        <ele>447.2</ele>
        <time>2013-04-10T12:15:33Z</time>
      </trkpt>
      <trkpt lat="43.41773" lon="5.62285">
        <ele>444.6</ele>
        <time>2013-04-10T12:15:41Z</time>
      </trkpt>
      <trkpt lat="43.41768" lon="5.62295">
        <ele>443.6</ele>
        <time>2013-04-10T12:15:49Z</time>
      </trkpt>
      <trkpt lat="43.41765" lon="5.62305">
        <ele>442.1</ele>
        <time>2013-04-10T12:15:56Z</time>
      </trkpt>
      <trkpt lat="43.41761" lon="5.62315">
        <ele>439.5</ele>
        <time>2013-04-10T12:16:03Z</time>
      </trkpt>
      <trkpt lat="43.41757" lon="5.62325">
        <ele>438.7</ele>
        <time>2013-04-10T12:16:10Z</time>
      </trkpt>
      <trkpt lat="43.41751" lon="5.62335">
        <ele>440.7</ele>
        <time>2013-04-10T12:16:17Z</time>
      </trkpt>
      <trkpt lat="43.41751" lon="5.62336">
        <ele>441</ele>
        <time>2013-04-10T12:16:18Z</time>
      </trkpt>
      <trkpt lat="43.41742" lon="5.62353">
        <ele>439.3</ele>
        <time>2013-04-10T12:16:33Z</time>
      </trkpt>
      <trkpt lat="43.41741" lon="5.62365">
        <ele>438.2</ele>
        <time>2013-04-10T12:16:41Z</time>
      </trkpt>
      <trkpt lat="43.41738" lon="5.62376">
        <ele>440.1</ele>
        <time>2013-04-10T12:16:48Z</time>
      </trkpt>
      <trkpt lat="43.41733" lon="5.62386">
        <ele>441.2</ele>
        <time>2013-04-10T12:16:55Z</time>
      </trkpt>
      <trkpt lat="43.4173" lon="5.62397">
        <ele>442.2</ele>
        <time>2013-04-10T12:17:02Z</time>
      </trkpt>
      <trkpt lat="43.41728" lon="5.62408">
        <ele>444.6</ele>
        <time>2013-04-10T12:17:10Z</time>
      </trkpt>
      <trkpt lat="43.41726" lon="5.62419">
        <ele>446.6</ele>
        <time>2013-04-10T12:17:17Z</time>
      </trkpt>
      <trkpt lat="43.41725" lon="5.62431">
        <ele>447.7</ele>
        <time>2013-04-10T12:17:24Z</time>
      </trkpt>
      <trkpt lat="43.41725" lon="5.62433">
        <ele>447.3</ele>
        <time>2013-04-10T12:17:25Z</time>
      </trkpt>
      <trkpt lat="43.41721" lon="5.62455">
        <ele>447.7</ele>
        <time>2013-04-10T12:17:39Z</time>
      </trkpt>
      <trkpt lat="43.4172" lon="5.62467">
        <ele>448.2</ele>
        <time>2013-04-10T12:17:47Z</time>
      </trkpt>
      <trkpt lat="43.41718" lon="5.62478">
        <ele>448.3</ele>
        <time>2013-04-10T12:17:54Z</time>
      </trkpt>
      <trkpt lat="43.41716" lon="5.6249">
        <ele>448.8</ele>
        <time>2013-04-10T12:18:02Z</time>
      </trkpt>
      <trkpt lat="43.41717" lon="5.62502">
        <ele>448.7</ele>
        <time>2013-04-10T12:18:10Z</time>
      </trkpt>
      <trkpt lat="43.41716" lon="5.62513">
        <ele>447.1</ele>
        <time>2013-04-10T12:18:17Z</time>
      </trkpt>
      <trkpt lat="43.41714" lon="5.62525">
        <ele>447.5</ele>
        <time>2013-04-10T12:18:26Z</time>
      </trkpt>
      <trkpt lat="43.41714" lon="5.62527">
        <ele>447.7</ele>
        <time>2013-04-10T12:18:27Z</time>
      </trkpt>
      <trkpt lat="43.4171" lon="5.62548">
        <ele>450.1</ele>
        <time>2013-04-10T12:18:40Z</time>
      </trkpt>
      <trkpt lat="43.41709" lon="5.6256">
        <ele>450.1</ele>
        <time>2013-04-10T12:18:47Z</time>
      </trkpt>
      <trkpt lat="43.41708" lon="5.62572">
        <ele>449.1</ele>
        <time>2013-04-10T12:18:54Z</time>
      </trkpt>
      <trkpt lat="43.41707" lon="5.62583">
        <ele>449</ele>
        <time>2013-04-10T12:19:01Z</time>
      </trkpt>
      <trkpt lat="43.41707" lon="5.62595">
        <ele>449.7</ele>
        <time>2013-04-10T12:19:08Z</time>
      </trkpt>
      <trkpt lat="43.41707" lon="5.62607">
        <ele>450.7</ele>
        <time>2013-04-10T12:19:15Z</time>
      </trkpt>
      <trkpt lat="43.41709" lon="5.62617">
        <ele>449.3</ele>
        <time>2013-04-10T12:19:21Z</time>
      </trkpt>
      <trkpt lat="43.41711" lon="5.62628">
        <ele>448.7</ele>
        <time>2013-04-10T12:19:28Z</time>
      </trkpt>
      <trkpt lat="43.41711" lon="5.62629">
        <ele>448.7</ele>
        <time>2013-04-10T12:19:29Z</time>
      </trkpt>
      <trkpt lat="43.41714" lon="5.62651">
        <ele>445.7</ele>
        <time>2013-04-10T12:19:43Z</time>
      </trkpt>
      <trkpt lat="43.41717" lon="5.62661">
        <ele>446.2</ele>
        <time>2013-04-10T12:19:50Z</time>
      </trkpt>
      <trkpt lat="43.41719" lon="5.62672">
        <ele>448.5</ele>
        <time>2013-04-10T12:20:01Z</time>
      </trkpt>
      <trkpt lat="43.41721" lon="5.62684">
        <ele>448.7</ele>
        <time>2013-04-10T12:20:09Z</time>
      </trkpt>
      <trkpt lat="43.41724" lon="5.62695">
        <ele>445.7</ele>
        <time>2013-04-10T12:20:17Z</time>
      </trkpt>
      <trkpt lat="43.41725" lon="5.62706">
        <ele>444.7</ele>
        <time>2013-04-10T12:20:24Z</time>
      </trkpt>
      <trkpt lat="43.41725" lon="5.62718">
        <ele>445.6</ele>
        <time>2013-04-10T12:20:32Z</time>
      </trkpt>
      <trkpt lat="43.41726" lon="5.62719">
        <ele>445.2</ele>
        <time>2013-04-10T12:20:33Z</time>
      </trkpt>
      <trkpt lat="43.41727" lon="5.6274">
        <ele>444.5</ele>
        <time>2013-04-10T12:20:44Z</time>
      </trkpt>
      <trkpt lat="43.41728" lon="5.62751">
        <ele>443.6</ele>
        <time>2013-04-10T12:20:51Z</time>
      </trkpt>
      <trkpt lat="43.41729" lon="5.62761">
        <ele>443.1</ele>
        <time>2013-04-10T12:20:57Z</time>
      </trkpt>
      <trkpt lat="43.41731" lon="5.62772">
        <ele>442.7</ele>
        <time>2013-04-10T12:21:03Z</time>
      </trkpt>
      <trkpt lat="43.41732" lon="5.62784">
        <ele>441.7</ele>
        <time>2013-04-10T12:21:10Z</time>
      </trkpt>
      <trkpt lat="43.41733" lon="5.62794">
        <ele>441.7</ele>
        <time>2013-04-10T12:21:16Z</time>
      </trkpt>
      <trkpt lat="43.41734" lon="5.62805">
        <ele>440.7</ele>
        <time>2013-04-10T12:21:23Z</time>
      </trkpt>
      <trkpt lat="43.41735" lon="5.62816">
        <ele>441</ele>
        <time>2013-04-10T12:21:30Z</time>
      </trkpt>
      <trkpt lat="43.41736" lon="5.62827">
        <ele>441.6</ele>
        <time>2013-04-10T12:21:37Z</time>
      </trkpt>
      <trkpt lat="43.41736" lon="5.62829">
        <ele>442</ele>
        <time>2013-04-10T12:21:38Z</time>
      </trkpt>
      <trkpt lat="43.41727" lon="5.62846">
        <ele>443.2</ele>
        <time>2013-04-10T12:21:51Z</time>
      </trkpt>
      <trkpt lat="43.4172" lon="5.62851">
        <ele>444.5</ele>
        <time>2013-04-10T12:21:59Z</time>
      </trkpt>
      <trkpt lat="43.41712" lon="5.62856">
        <ele>443.6</ele>
        <time>2013-04-10T12:22:07Z</time>
      </trkpt>
      <trkpt lat="43.41706" lon="5.62862">
        <ele>446.8</ele>
        <time>2013-04-10T12:22:13Z</time>
      </trkpt>
      <trkpt lat="43.41699" lon="5.62869">
        <ele>447.6</ele>
        <time>2013-04-10T12:22:21Z</time>
      </trkpt>
      <trkpt lat="43.41696" lon="5.6288">
        <ele>427.3</ele>
        <time>2013-04-10T12:23:10Z</time>
      </trkpt>
      <trkpt lat="43.41696" lon="5.62881">
        <ele>427.6</ele>
        <time>2013-04-10T12:23:11Z</time>
      </trkpt>
      <trkpt lat="43.41681" lon="5.6289">
        <ele>451.8</ele>
        <time>2013-04-10T12:25:40Z</time>
      </trkpt>
      <trkpt lat="43.4168" lon="5.6289">
        <ele>451.7</ele>
        <time>2013-04-10T12:25:41Z</time>
      </trkpt>
      <trkpt lat="43.41666" lon="5.62881">
        <ele>448.1</ele>
        <time>2013-04-10T12:26:00Z</time>
      </trkpt>
      <trkpt lat="43.41662" lon="5.6287">
        <ele>447</ele>
        <time>2013-04-10T12:26:08Z</time>
      </trkpt>
      <trkpt lat="43.41659" lon="5.62859">
        <ele>446.5</ele>
        <time>2013-04-10T12:26:15Z</time>
      </trkpt>
      <trkpt lat="43.41656" lon="5.62849">
        <ele>446.5</ele>
        <time>2013-04-10T12:26:22Z</time>
      </trkpt>
      <trkpt lat="43.41652" lon="5.62838">
        <ele>447.7</ele>
        <time>2013-04-10T12:26:29Z</time>
      </trkpt>
      <trkpt lat="43.41648" lon="5.62827">
        <ele>447.8</ele>
        <time>2013-04-10T12:26:37Z</time>
      </trkpt>
      <trkpt lat="43.4164" lon="5.62825">
        <ele>447.6</ele>
        <time>2013-04-10T12:26:45Z</time>
      </trkpt>
      <trkpt lat="43.41639" lon="5.62825">
        <ele>447.6</ele>
        <time>2013-04-10T12:26:46Z</time>
      </trkpt>
      <trkpt lat="43.41623" lon="5.62827">
        <ele>445.6</ele>
        <time>2013-04-10T12:27:02Z</time>
      </trkpt>
      <trkpt lat="43.41615" lon="5.62828">
        <ele>443.2</ele>
        <time>2013-04-10T12:27:10Z</time>
      </trkpt>
      <trkpt lat="43.41607" lon="5.62828">
        <ele>442.1</ele>
        <time>2013-04-10T12:27:20Z</time>
      </trkpt>
      <trkpt lat="43.416" lon="5.62836">
        <ele>442.5</ele>
        <time>2013-04-10T12:27:29Z</time>
      </trkpt>
      <trkpt lat="43.41594" lon="5.62845">
        <ele>436.7</ele>
        <time>2013-04-10T12:27:49Z</time>
      </trkpt>
      <trkpt lat="43.41594" lon="5.62845">
        <ele>436.2</ele>
        <time>2013-04-10T12:27:50Z</time>
      </trkpt>
      <trkpt lat="43.41578" lon="5.62845">
        <ele>433.6</ele>
        <time>2013-04-10T12:28:50Z</time>
      </trkpt>
      <trkpt lat="43.41577" lon="5.62845">
        <ele>433.8</ele>
        <time>2013-04-10T12:28:51Z</time>
      </trkpt>
      <trkpt lat="43.41562" lon="5.62848">
        <ele>433.2</ele>
        <time>2013-04-10T12:29:06Z</time>
      </trkpt>
      <trkpt lat="43.41554" lon="5.62851">
        <ele>433.2</ele>
        <time>2013-04-10T12:29:17Z</time>
      </trkpt>
      <trkpt lat="43.41545" lon="5.62854">
        <ele>432</ele>
        <time>2013-04-10T12:29:26Z</time>
      </trkpt>
      <trkpt lat="43.41537" lon="5.62857">
        <ele>429.7</ele>
        <time>2013-04-10T12:29:35Z</time>
      </trkpt>
      <trkpt lat="43.41528" lon="5.62861">
        <ele>428.1</ele>
        <time>2013-04-10T12:29:43Z</time>
      </trkpt>
      <trkpt lat="43.4152" lon="5.62865">
        <ele>425.7</ele>
        <time>2013-04-10T12:29:51Z</time>
      </trkpt>
      <trkpt lat="43.41519" lon="5.62866">
        <ele>426</ele>
        <time>2013-04-10T12:29:52Z</time>
      </trkpt>
      <trkpt lat="43.41505" lon="5.62873">
        <ele>424.2</ele>
        <time>2013-04-10T12:30:05Z</time>
      </trkpt>
      <trkpt lat="43.41497" lon="5.62875">
        <ele>424.3</ele>
        <time>2013-04-10T12:30:12Z</time>
      </trkpt>
      <trkpt lat="43.41489" lon="5.6288">
        <ele>425</ele>
        <time>2013-04-10T12:30:20Z</time>
      </trkpt>
      <trkpt lat="43.41481" lon="5.62885">
        <ele>425.6</ele>
        <time>2013-04-10T12:30:28Z</time>
      </trkpt>
      <trkpt lat="43.41473" lon="5.62889">
        <ele>430.1</ele>
        <time>2013-04-10T12:30:34Z</time>
      </trkpt>
      <trkpt lat="43.41465" lon="5.62892">
        <ele>431</ele>
        <time>2013-04-10T12:30:42Z</time>
      </trkpt>
      <trkpt lat="43.41457" lon="5.62894">
        <ele>431.1</ele>
        <time>2013-04-10T12:30:49Z</time>
      </trkpt>
      <trkpt lat="43.41449" lon="5.62897">
        <ele>430</ele>
        <time>2013-04-10T12:30:57Z</time>
      </trkpt>
      <trkpt lat="43.41447" lon="5.62897">
        <ele>430.3</ele>
        <time>2013-04-10T12:30:58Z</time>
      </trkpt>
      <trkpt lat="43.41432" lon="5.62904">
        <ele>429.8</ele>
        <time>2013-04-10T12:31:12Z</time>
      </trkpt>
      <trkpt lat="43.41425" lon="5.62907">
        <ele>433.2</ele>
        <time>2013-04-10T12:31:18Z</time>
      </trkpt>
      <trkpt lat="43.41416" lon="5.6291">
        <ele>435.2</ele>
        <time>2013-04-10T12:31:26Z</time>
      </trkpt>
      <trkpt lat="43.41408" lon="5.62911">
        <ele>433.3</ele>
        <time>2013-04-10T12:31:36Z</time>
      </trkpt>
      <trkpt lat="43.414" lon="5.62918">
        <ele>436.1</ele>
        <time>2013-04-10T12:31:44Z</time>
      </trkpt>
      <trkpt lat="43.41395" lon="5.62926">
        <ele>438.7</ele>
        <time>2013-04-10T12:31:50Z</time>
      </trkpt>
      <trkpt lat="43.41389" lon="5.62933">
        <ele>439.8</ele>
        <time>2013-04-10T12:31:57Z</time>
      </trkpt>
      <trkpt lat="43.41382" lon="5.62941">
        <ele>440.7</ele>
        <time>2013-04-10T12:32:05Z</time>
      </trkpt>
      <trkpt lat="43.41381" lon="5.62942">
        <ele>440.8</ele>
        <time>2013-04-10T12:32:06Z</time>
      </trkpt>
      <trkpt lat="43.41369" lon="5.62954">
        <ele>442.2</ele>
        <time>2013-04-10T12:32:19Z</time>
      </trkpt>
      <trkpt lat="43.41361" lon="5.62961">
        <ele>442.8</ele>
        <time>2013-04-10T12:32:27Z</time>
      </trkpt>
      <trkpt lat="43.41355" lon="5.62968">
        <ele>442.2</ele>
        <time>2013-04-10T12:32:34Z</time>
      </trkpt>
      <trkpt lat="43.41349" lon="5.62975">
        <ele>442.7</ele>
        <time>2013-04-10T12:32:41Z</time>
      </trkpt>
      <trkpt lat="43.41342" lon="5.62982">
        <ele>444</ele>
        <time>2013-04-10T12:32:48Z</time>
      </trkpt>
      <trkpt lat="43.41335" lon="5.62989">
        <ele>447.1</ele>
        <time>2013-04-10T12:32:54Z</time>
      </trkpt>
      <trkpt lat="43.41329" lon="5.62997">
        <ele>447.7</ele>
        <time>2013-04-10T12:33:02Z</time>
      </trkpt>
      <trkpt lat="43.41324" lon="5.63005">
        <ele>447.8</ele>
        <time>2013-04-10T12:33:08Z</time>
      </trkpt>
      <trkpt lat="43.41323" lon="5.63006">
        <ele>448</ele>
        <time>2013-04-10T12:33:09Z</time>
      </trkpt>
      <trkpt lat="43.41312" lon="5.63021">
        <ele>450.2</ele>
        <time>2013-04-10T12:33:21Z</time>
      </trkpt>
      <trkpt lat="43.41307" lon="5.63029">
        <ele>450.2</ele>
        <time>2013-04-10T12:33:28Z</time>
      </trkpt>
      <trkpt lat="43.41302" lon="5.63036">
        <ele>450.3</ele>
        <time>2013-04-10T12:33:34Z</time>
      </trkpt>
      <trkpt lat="43.41295" lon="5.63045">
        <ele>449.1</ele>
        <time>2013-04-10T12:33:42Z</time>
      </trkpt>
      <trkpt lat="43.41289" lon="5.63053">
        <ele>449.7</ele>
        <time>2013-04-10T12:33:50Z</time>
      </trkpt>
      <trkpt lat="43.41283" lon="5.63061">
        <ele>448.6</ele>
        <time>2013-04-10T12:33:57Z</time>
      </trkpt>
      <trkpt lat="43.41278" lon="5.6307">
        <ele>448.5</ele>
        <time>2013-04-10T12:34:04Z</time>
      </trkpt>
      <trkpt lat="43.41272" lon="5.63079">
        <ele>448.3</ele>
        <time>2013-04-10T12:34:11Z</time>
      </trkpt>
      <trkpt lat="43.41271" lon="5.6308">
        <ele>448.6</ele>
        <time>2013-04-10T12:34:12Z</time>
      </trkpt>
      <trkpt lat="43.41259" lon="5.63095">
        <ele>450.3</ele>
        <time>2013-04-10T12:34:26Z</time>
      </trkpt>
      <trkpt lat="43.41253" lon="5.63103">
        <ele>450.8</ele>
        <time>2013-04-10T12:34:34Z</time>
      </trkpt>
      <trkpt lat="43.41247" lon="5.63112">
        <ele>452</ele>
        <time>2013-04-10T12:34:42Z</time>
      </trkpt>
      <trkpt lat="43.41241" lon="5.63119">
        <ele>452.1</ele>
        <time>2013-04-10T12:34:50Z</time>
      </trkpt>
      <trkpt lat="43.41235" lon="5.63127">
        <ele>452.2</ele>
        <time>2013-04-10T12:34:58Z</time>
      </trkpt>
      <trkpt lat="43.41228" lon="5.63136">
        <ele>453.3</ele>
        <time>2013-04-10T12:35:06Z</time>
      </trkpt>
      <trkpt lat="43.41222" lon="5.63144">
        <ele>453.8</ele>
        <time>2013-04-10T12:35:14Z</time>
      </trkpt>
      <trkpt lat="43.41221" lon="5.63145">
        <ele>454</ele>
        <time>2013-04-10T12:35:15Z</time>
      </trkpt>
      <trkpt lat="43.4121" lon="5.6316">
        <ele>453.8</ele>
        <time>2013-04-10T12:35:31Z</time>
      </trkpt>
      <trkpt lat="43.41205" lon="5.6317">
        <ele>454.2</ele>
        <time>2013-04-10T12:35:40Z</time>
      </trkpt>
      <trkpt lat="43.41201" lon="5.63179">
        <ele>454.2</ele>
        <time>2013-04-10T12:35:49Z</time>
      </trkpt>
      <trkpt lat="43.41198" lon="5.6319">
        <ele>457.7</ele>
        <time>2013-04-10T12:35:59Z</time>
      </trkpt>
      <trkpt lat="43.41194" lon="5.632">
        <ele>457.7</ele>
        <time>2013-04-10T12:36:11Z</time>
      </trkpt>
      <trkpt lat="43.41189" lon="5.6321">
        <ele>458.6</ele>
        <time>2013-04-10T12:36:20Z</time>
      </trkpt>
      <trkpt lat="43.41189" lon="5.63211">
        <ele>458.6</ele>
        <time>2013-04-10T12:36:21Z</time>
      </trkpt>
      <trkpt lat="43.4118" lon="5.6323">
        <ele>459</ele>
        <time>2013-04-10T12:36:36Z</time>
      </trkpt>
      <trkpt lat="43.41175" lon="5.63239">
        <ele>459.3</ele>
        <time>2013-04-10T12:36:45Z</time>
      </trkpt>
      <trkpt lat="43.41171" lon="5.63249">
        <ele>458.7</ele>
        <time>2013-04-10T12:36:53Z</time>
      </trkpt>
      <trkpt lat="43.41168" lon="5.63259">
        <ele>459.2</ele>
        <time>2013-04-10T12:37:01Z</time>
      </trkpt>
      <trkpt lat="43.41164" lon="5.6327">
        <ele>459.1</ele>
        <time>2013-04-10T12:37:09Z</time>
      </trkpt>
      <trkpt lat="43.4116" lon="5.63279">
        <ele>459.2</ele>
        <time>2013-04-10T12:37:17Z</time>
      </trkpt>
      <trkpt lat="43.41156" lon="5.63289">
        <ele>460.7</ele>
        <time>2013-04-10T12:37:24Z</time>
      </trkpt>
      <trkpt lat="43.41156" lon="5.63291">
        <ele>460.8</ele>
        <time>2013-04-10T12:37:25Z</time>
      </trkpt>
      <trkpt lat="43.41149" lon="5.63311">
        <ele>462.3</ele>
        <time>2013-04-10T12:37:40Z</time>
      </trkpt>
      <trkpt lat="43.41145" lon="5.63322">
        <ele>461.7</ele>
        <time>2013-04-10T12:37:48Z</time>
      </trkpt>
      <trkpt lat="43.41141" lon="5.63332">
        <ele>462.2</ele>
        <time>2013-04-10T12:37:54Z</time>
      </trkpt>
      <trkpt lat="43.41138" lon="5.63343">
        <ele>462.7</ele>
        <time>2013-04-10T12:38:01Z</time>
      </trkpt>
      <trkpt lat="43.41134" lon="5.63354">
        <ele>463.3</ele>
        <time>2013-04-10T12:38:09Z</time>
      </trkpt>
      <trkpt lat="43.4113" lon="5.63364">
        <ele>464</ele>
        <time>2013-04-10T12:38:17Z</time>
      </trkpt>
      <trkpt lat="43.41126" lon="5.63374">
        <ele>464.2</ele>
        <time>2013-04-10T12:38:25Z</time>
      </trkpt>
      <trkpt lat="43.41125" lon="5.63375">
        <ele>464.2</ele>
        <time>2013-04-10T12:38:26Z</time>
      </trkpt>
      <trkpt lat="43.41118" lon="5.63395">
        <ele>465.2</ele>
        <time>2013-04-10T12:38:44Z</time>
      </trkpt>
      <trkpt lat="43.41114" lon="5.63404">
        <ele>464.7</ele>
        <time>2013-04-10T12:38:53Z</time>
      </trkpt>
      <trkpt lat="43.4111" lon="5.63415">
        <ele>465.2</ele>
        <time>2013-04-10T12:39:02Z</time>
      </trkpt>
      <trkpt lat="43.41106" lon="5.63426">
        <ele>465.7</ele>
        <time>2013-04-10T12:39:11Z</time>
      </trkpt>
      <trkpt lat="43.41103" lon="5.63438">
        <ele>470.7</ele>
        <time>2013-04-10T12:39:23Z</time>
      </trkpt>
      <trkpt lat="43.41104" lon="5.6345">
        <ele>469.7</ele>
        <time>2013-04-10T12:44:14Z</time>
      </trkpt>
      <trkpt lat="43.41104" lon="5.6345">
        <ele>469.7</ele>
        <time>2013-04-10T12:44:15Z</time>
      </trkpt>
      <trkpt lat="43.41093" lon="5.63467">
        <ele>467.7</ele>
        <time>2013-04-10T12:44:38Z</time>
      </trkpt>
      <trkpt lat="43.41089" lon="5.63477">
        <ele>467.8</ele>
        <time>2013-04-10T12:44:48Z</time>
      </trkpt>
      <trkpt lat="43.41084" lon="5.63487">
        <ele>468.8</ele>
        <time>2013-04-10T12:44:58Z</time>
      </trkpt>
      <trkpt lat="43.4108" lon="5.63498">
        <ele>469</ele>
        <time>2013-04-10T12:45:08Z</time>
      </trkpt>
      <trkpt lat="43.41076" lon="5.63508">
        <ele>469.1</ele>
        <time>2013-04-10T12:45:16Z</time>
      </trkpt>
      <trkpt lat="43.41075" lon="5.6351">
        <ele>469.2</ele>
        <time>2013-04-10T12:45:17Z</time>
      </trkpt>
      <trkpt lat="43.41068" lon="5.63528">
        <ele>470.2</ele>
        <time>2013-04-10T12:45:32Z</time>
      </trkpt>
      <trkpt lat="43.41064" lon="5.63538">
        <ele>470.7</ele>
        <time>2013-04-10T12:45:40Z</time>
      </trkpt>
      <trkpt lat="43.4106" lon="5.63549">
        <ele>471.3</ele>
        <time>2013-04-10T12:45:47Z</time>
      </trkpt>
      <trkpt lat="43.41057" lon="5.63558">
        <ele>471.7</ele>
        <time>2013-04-10T12:45:53Z</time>
      </trkpt>
      <trkpt lat="43.41054" lon="5.63569">
        <ele>471.6</ele>
        <time>2013-04-10T12:45:59Z</time>
      </trkpt>
      <trkpt lat="43.4105" lon="5.63579">
        <ele>473.2</ele>
        <time>2013-04-10T12:46:05Z</time>
      </trkpt>
      <trkpt lat="43.41046" lon="5.6359">
        <ele>473.1</ele>
        <time>2013-04-10T12:46:12Z</time>
      </trkpt>
      <trkpt lat="43.41043" lon="5.636">
        <ele>472.3</ele>
        <time>2013-04-10T12:46:19Z</time>
      </trkpt>
      <trkpt lat="43.41042" lon="5.63602">
        <ele>471.8</ele>
        <time>2013-04-10T12:46:20Z</time>
      </trkpt>
      <trkpt lat="43.41037" lon="5.63622">
        <ele>471</ele>
        <time>2013-04-10T12:46:33Z</time>
      </trkpt>
      <trkpt lat="43.41035" lon="5.63633">
        <ele>470.8</ele>
        <time>2013-04-10T12:46:40Z</time>
      </trkpt>
      <trkpt lat="43.41032" lon="5.63643">
        <ele>471</ele>
        <time>2013-04-10T12:46:47Z</time>
      </trkpt>
      <trkpt lat="43.41029" lon="5.63653">
        <ele>471.2</ele>
        <time>2013-04-10T12:46:54Z</time>
      </trkpt>
      <trkpt lat="43.41026" lon="5.63664">
        <ele>471.6</ele>
        <time>2013-04-10T12:47:01Z</time>
      </trkpt>
      <trkpt lat="43.41024" lon="5.63675">
        <ele>472.2</ele>
        <time>2013-04-10T12:47:08Z</time>
      </trkpt>
      <trkpt lat="43.4102" lon="5.63686">
        <ele>472.6</ele>
        <time>2013-04-10T12:47:16Z</time>
      </trkpt>
      <trkpt lat="43.41017" lon="5.63697">
        <ele>472.7</ele>
        <time>2013-04-10T12:47:24Z</time>
      </trkpt>
      <trkpt lat="43.41017" lon="5.63699">
        <ele>472.8</ele>
        <time>2013-04-10T12:47:25Z</time>
      </trkpt>
      <trkpt lat="43.4101" lon="5.63719">
        <ele>475</ele>
        <time>2013-04-10T12:47:37Z</time>
      </trkpt>
      <trkpt lat="43.41008" lon="5.6373">
        <ele>477</ele>
        <time>2013-04-10T12:47:43Z</time>
      </trkpt>
      <trkpt lat="43.41006" lon="5.63741">
        <ele>476.6</ele>
        <time>2013-04-10T12:47:50Z</time>
      </trkpt>
      <trkpt lat="43.41004" lon="5.63752">
        <ele>476.2</ele>
        <time>2013-04-10T12:47:57Z</time>
      </trkpt>
      <trkpt lat="43.41002" lon="5.63763">
        <ele>476.5</ele>
        <time>2013-04-10T12:48:04Z</time>
      </trkpt>
      <trkpt lat="43.40998" lon="5.63773">
        <ele>476.2</ele>
        <time>2013-04-10T12:48:11Z</time>
      </trkpt>
      <trkpt lat="43.40994" lon="5.63784">
        <ele>476.2</ele>
        <time>2013-04-10T12:48:18Z</time>
      </trkpt>
      <trkpt lat="43.4099" lon="5.63795">
        <ele>476.1</ele>
        <time>2013-04-10T12:48:25Z</time>
      </trkpt>
      <trkpt lat="43.4099" lon="5.63796">
        <ele>476.1</ele>
        <time>2013-04-10T12:48:26Z</time>
      </trkpt>
      <trkpt lat="43.40983" lon="5.63816">
        <ele>476.6</ele>
        <time>2013-04-10T12:48:39Z</time>
      </trkpt>
      <trkpt lat="43.40978" lon="5.63825">
        <ele>476.6</ele>
        <time>2013-04-10T12:48:46Z</time>
      </trkpt>
      <trkpt lat="43.40973" lon="5.63834">
        <ele>476.8</ele>
        <time>2013-04-10T12:48:53Z</time>
      </trkpt>
      <trkpt lat="43.40968" lon="5.63842">
        <ele>476.8</ele>
        <time>2013-04-10T12:48:59Z</time>
      </trkpt>
      <trkpt lat="43.40963" lon="5.63851">
        <ele>477.1</ele>
        <time>2013-04-10T12:49:05Z</time>
      </trkpt>
      <trkpt lat="43.40959" lon="5.63861">
        <ele>477.1</ele>
        <time>2013-04-10T12:49:12Z</time>
      </trkpt>
      <trkpt lat="43.40954" lon="5.63871">
        <ele>476.7</ele>
        <time>2013-04-10T12:49:19Z</time>
      </trkpt>
      <trkpt lat="43.4095" lon="5.6388">
        <ele>476.2</ele>
        <time>2013-04-10T12:49:26Z</time>
      </trkpt>
      <trkpt lat="43.40949" lon="5.63881">
        <ele>476.2</ele>
        <time>2013-04-10T12:49:27Z</time>
      </trkpt>
      <trkpt lat="43.4094" lon="5.639">
        <ele>476.2</ele>
        <time>2013-04-10T12:49:40Z</time>
      </trkpt>
      <trkpt lat="43.40935" lon="5.6391">
        <ele>476.1</ele>
        <time>2013-04-10T12:49:47Z</time>
      </trkpt>
      <trkpt lat="43.4093" lon="5.63918">
        <ele>476.2</ele>
        <time>2013-04-10T12:49:54Z</time>
      </trkpt>
      <trkpt lat="43.40925" lon="5.63927">
        <ele>477.2</ele>
        <time>2013-04-10T12:50:01Z</time>
      </trkpt>
      <trkpt lat="43.4092" lon="5.63936">
        <ele>477.7</ele>
        <time>2013-04-10T12:50:08Z</time>
      </trkpt>
      <trkpt lat="43.40915" lon="5.63946">
        <ele>478.2</ele>
        <time>2013-04-10T12:50:15Z</time>
      </trkpt>
      <trkpt lat="43.4091" lon="5.63955">
        <ele>478.5</ele>
        <time>2013-04-10T12:50:22Z</time>
      </trkpt>
      <trkpt lat="43.40906" lon="5.63965">
        <ele>478.7</ele>
        <time>2013-04-10T12:50:29Z</time>
      </trkpt>
      <trkpt lat="43.40905" lon="5.63967">
        <ele>479.1</ele>
        <time>2013-04-10T12:50:30Z</time>
      </trkpt>
      <trkpt lat="43.40898" lon="5.63986">
        <ele>479.1</ele>
        <time>2013-04-10T12:50:44Z</time>
      </trkpt>
      <trkpt lat="43.40893" lon="5.63996">
        <ele>479.2</ele>
        <time>2013-04-10T12:50:52Z</time>
      </trkpt>
      <trkpt lat="43.40889" lon="5.64005">
        <ele>480.1</ele>
        <time>2013-04-10T12:50:59Z</time>
      </trkpt>
      <trkpt lat="43.40884" lon="5.64016">
        <ele>480.8</ele>
        <time>2013-04-10T12:51:06Z</time>
      </trkpt>
      <trkpt lat="43.4088" lon="5.64026">
        <ele>481.7</ele>
        <time>2013-04-10T12:51:14Z</time>
      </trkpt>
      <trkpt lat="43.40876" lon="5.64036">
        <ele>481.6</ele>
        <time>2013-04-10T12:51:22Z</time>
      </trkpt>
      <trkpt lat="43.40871" lon="5.64046">
        <ele>481.6</ele>
        <time>2013-04-10T12:51:30Z</time>
      </trkpt>
      <trkpt lat="43.40871" lon="5.64048">
        <ele>481.6</ele>
        <time>2013-04-10T12:51:31Z</time>
      </trkpt>
      <trkpt lat="43.40863" lon="5.64068">
        <ele>482.6</ele>
        <time>2013-04-10T12:51:48Z</time>
      </trkpt>
      <trkpt lat="43.40861" lon="5.64079">
        <ele>484.6</ele>
        <time>2013-04-10T12:53:38Z</time>
      </trkpt>
      <trkpt lat="43.40861" lon="5.6408">
        <ele>484.6</ele>
        <time>2013-04-10T12:53:39Z</time>
      </trkpt>
      <trkpt lat="43.40854" lon="5.641">
        <ele>487.3</ele>
        <time>2013-04-10T12:54:01Z</time>
      </trkpt>
      <trkpt lat="43.40851" lon="5.64111">
        <ele>488.7</ele>
        <time>2013-04-10T12:54:08Z</time>
      </trkpt>
      <trkpt lat="43.40848" lon="5.64122">
        <ele>488.2</ele>
        <time>2013-04-10T12:54:15Z</time>
      </trkpt>
      <trkpt lat="43.40845" lon="5.64132">
        <ele>487.2</ele>
        <time>2013-04-10T12:54:24Z</time>
      </trkpt>
      <trkpt lat="43.40842" lon="5.64144">
        <ele>486.2</ele>
        <time>2013-04-10T12:54:32Z</time>
      </trkpt>
      <trkpt lat="43.4084" lon="5.64154">
        <ele>485.6</ele>
        <time>2013-04-10T12:54:39Z</time>
      </trkpt>
      <trkpt lat="43.40839" lon="5.64156">
        <ele>485.5</ele>
        <time>2013-04-10T12:54:40Z</time>
      </trkpt>
      <trkpt lat="43.40834" lon="5.64176">
        <ele>485.3</ele>
        <time>2013-04-10T12:54:53Z</time>
      </trkpt>
      <trkpt lat="43.40831" lon="5.64187">
        <ele>485.7</ele>
        <time>2013-04-10T12:55:00Z</time>
      </trkpt>
      <trkpt lat="43.40828" lon="5.64198">
        <ele>486.2</ele>
        <time>2013-04-10T12:55:08Z</time>
      </trkpt>
      <trkpt lat="43.40826" lon="5.64209">
        <ele>486.3</ele>
        <time>2013-04-10T12:55:16Z</time>
      </trkpt>
      <trkpt lat="43.40822" lon="5.6422">
        <ele>486.7</ele>
        <time>2013-04-10T12:55:23Z</time>
      </trkpt>
      <trkpt lat="43.40819" lon="5.6423">
        <ele>488.8</ele>
        <time>2013-04-10T12:55:29Z</time>
      </trkpt>
      <trkpt lat="43.40815" lon="5.64241">
        <ele>488.8</ele>
        <time>2013-04-10T12:55:36Z</time>
      </trkpt>
      <trkpt lat="43.40812" lon="5.64251">
        <ele>489.5</ele>
        <time>2013-04-10T12:55:42Z</time>
      </trkpt>
      <trkpt lat="43.40812" lon="5.64252">
        <ele>489.6</ele>
        <time>2013-04-10T12:55:43Z</time>
      </trkpt>
      <trkpt lat="43.40805" lon="5.64271">
        <ele>491.3</ele>
        <time>2013-04-10T12:55:55Z</time>
      </trkpt>
      <trkpt lat="43.40801" lon="5.64282">
        <ele>492.6</ele>
        <time>2013-04-10T12:56:02Z</time>
      </trkpt>
      <trkpt lat="43.40796" lon="5.64291">
        <ele>494.2</ele>
        <time>2013-04-10T12:56:09Z</time>
      </trkpt>
      <trkpt lat="43.40793" lon="5.64302">
        <ele>495.6</ele>
        <time>2013-04-10T12:56:16Z</time>
      </trkpt>
      <trkpt lat="43.40788" lon="5.64312">
        <ele>495.7</ele>
        <time>2013-04-10T12:56:24Z</time>
      </trkpt>
      <trkpt lat="43.40784" lon="5.64322">
        <ele>496.1</ele>
        <time>2013-04-10T12:56:31Z</time>
      </trkpt>
      <trkpt lat="43.4078" lon="5.64331">
        <ele>497.2</ele>
        <time>2013-04-10T12:56:38Z</time>
      </trkpt>
      <trkpt lat="43.40775" lon="5.64341">
        <ele>497.1</ele>
        <time>2013-04-10T12:56:45Z</time>
      </trkpt>
      <trkpt lat="43.40774" lon="5.64343">
        <ele>497.2</ele>
        <time>2013-04-10T12:56:46Z</time>
      </trkpt>
      <trkpt lat="43.40768" lon="5.6436">
        <ele>497.7</ele>
        <time>2013-04-10T12:56:58Z</time>
      </trkpt>
      <trkpt lat="43.40763" lon="5.6437">
        <ele>498.2</ele>
        <time>2013-04-10T12:57:05Z</time>
      </trkpt>
      <trkpt lat="43.4076" lon="5.64379">
        <ele>499.2</ele>
        <time>2013-04-10T12:57:12Z</time>
      </trkpt>
      <trkpt lat="43.40755" lon="5.64389">
        <ele>499.5</ele>
        <time>2013-04-10T12:57:18Z</time>
      </trkpt>
      <trkpt lat="43.40751" lon="5.64398">
        <ele>499.5</ele>
        <time>2013-04-10T12:57:25Z</time>
      </trkpt>
      <trkpt lat="43.40747" lon="5.64408">
        <ele>499.7</ele>
        <time>2013-04-10T12:57:32Z</time>
      </trkpt>
      <trkpt lat="43.40742" lon="5.64418">
        <ele>500.3</ele>
        <time>2013-04-10T12:57:39Z</time>
      </trkpt>
      <trkpt lat="43.40737" lon="5.64429">
        <ele>500.7</ele>
        <time>2013-04-10T12:57:46Z</time>
      </trkpt>
      <trkpt lat="43.40737" lon="5.6443">
        <ele>500.7</ele>
        <time>2013-04-10T12:57:47Z</time>
      </trkpt>
      <trkpt lat="43.40729" lon="5.64448">
        <ele>501.7</ele>
        <time>2013-04-10T12:57:59Z</time>
      </trkpt>
      <trkpt lat="43.40726" lon="5.64459">
        <ele>502.3</ele>
        <time>2013-04-10T12:58:06Z</time>
      </trkpt>
      <trkpt lat="43.40723" lon="5.64469">
        <ele>503.2</ele>
        <time>2013-04-10T12:58:13Z</time>
      </trkpt>
      <trkpt lat="43.40721" lon="5.64481">
        <ele>503.6</ele>
        <time>2013-04-10T12:58:20Z</time>
      </trkpt>
      <trkpt lat="43.40718" lon="5.64492">
        <ele>504.1</ele>
        <time>2013-04-10T12:58:27Z</time>
      </trkpt>
      <trkpt lat="43.40717" lon="5.64504">
        <ele>504.2</ele>
        <time>2013-04-10T12:58:34Z</time>
      </trkpt>
      <trkpt lat="43.40717" lon="5.64515">
        <ele>506.2</ele>
        <time>2013-04-10T12:58:41Z</time>
      </trkpt>
      <trkpt lat="43.40717" lon="5.64527">
        <ele>507.2</ele>
        <time>2013-04-10T12:58:48Z</time>
      </trkpt>
      <trkpt lat="43.40717" lon="5.64529">
        <ele>507.2</ele>
        <time>2013-04-10T12:58:49Z</time>
      </trkpt>
      <trkpt lat="43.40718" lon="5.6455">
        <ele>511.2</ele>
        <time>2013-04-10T12:59:03Z</time>
      </trkpt>
      <trkpt lat="43.40719" lon="5.64562">
        <ele>510.7</ele>
        <time>2013-04-10T12:59:10Z</time>
      </trkpt>
      <trkpt lat="43.40721" lon="5.64574">
        <ele>508.1</ele>
        <time>2013-04-10T12:59:17Z</time>
      </trkpt>
      <trkpt lat="43.40722" lon="5.64584">
        <ele>506.6</ele>
        <time>2013-04-10T12:59:23Z</time>
      </trkpt>
      <trkpt lat="43.40724" lon="5.64596">
        <ele>507.3</ele>
        <time>2013-04-10T12:59:30Z</time>
      </trkpt>
      <trkpt lat="43.40726" lon="5.64608">
        <ele>507.7</ele>
        <time>2013-04-10T12:59:37Z</time>
      </trkpt>
      <trkpt lat="43.40729" lon="5.64619">
        <ele>507.6</ele>
        <time>2013-04-10T12:59:44Z</time>
      </trkpt>
      <trkpt lat="43.40731" lon="5.6463">
        <ele>506.2</ele>
        <time>2013-04-10T12:59:51Z</time>
      </trkpt>
      <trkpt lat="43.40731" lon="5.64632">
        <ele>506.7</ele>
        <time>2013-04-10T12:59:52Z</time>
      </trkpt>
      <trkpt lat="43.40735" lon="5.64652">
        <ele>506</ele>
        <time>2013-04-10T13:00:04Z</time>
      </trkpt>
      <trkpt lat="43.40739" lon="5.64664">
        <ele>502.3</ele>
        <time>2013-04-10T13:00:11Z</time>
      </trkpt>
      <trkpt lat="43.40742" lon="5.64675">
        <ele>501.7</ele>
        <time>2013-04-10T13:00:18Z</time>
      </trkpt>
      <trkpt lat="43.40745" lon="5.64685">
        <ele>502.3</ele>
        <time>2013-04-10T13:00:24Z</time>
      </trkpt>
      <trkpt lat="43.40748" lon="5.64696">
        <ele>504</ele>
        <time>2013-04-10T13:00:30Z</time>
      </trkpt>
      <trkpt lat="43.40751" lon="5.64706">
        <ele>504.7</ele>
        <time>2013-04-10T13:00:36Z</time>
      </trkpt>
      <trkpt lat="43.40754" lon="5.64717">
        <ele>505.2</ele>
        <time>2013-04-10T13:00:43Z</time>
      </trkpt>
      <trkpt lat="43.40757" lon="5.64728">
        <ele>505.2</ele>
        <time>2013-04-10T13:00:51Z</time>
      </trkpt>
      <trkpt lat="43.40759" lon="5.6474">
        <ele>505.2</ele>
        <time>2013-04-10T13:00:58Z</time>
      </trkpt>
      <trkpt lat="43.4076" lon="5.64742">
        <ele>505.3</ele>
        <time>2013-04-10T13:00:59Z</time>
      </trkpt>
      <trkpt lat="43.40764" lon="5.64762">
        <ele>505.6</ele>
        <time>2013-04-10T13:01:12Z</time>
      </trkpt>
      <trkpt lat="43.40767" lon="5.64773">
        <ele>504.8</ele>
        <time>2013-04-10T13:01:19Z</time>
      </trkpt>
      <trkpt lat="43.40768" lon="5.64785">
        <ele>504.1</ele>
        <time>2013-04-10T13:01:27Z</time>
      </trkpt>
      <trkpt lat="43.40771" lon="5.64795">
        <ele>504</ele>
        <time>2013-04-10T13:01:33Z</time>
      </trkpt>
      <trkpt lat="43.40774" lon="5.64806">
        <ele>502.7</ele>
        <time>2013-04-10T13:01:39Z</time>
      </trkpt>
      <trkpt lat="43.40777" lon="5.64816">
        <ele>502.2</ele>
        <time>2013-04-10T13:01:46Z</time>
      </trkpt>
      <trkpt lat="43.4078" lon="5.64828">
        <ele>501.3</ele>
        <time>2013-04-10T13:01:53Z</time>
      </trkpt>
      <trkpt lat="43.40783" lon="5.64838">
        <ele>501</ele>
        <time>2013-04-10T13:02:00Z</time>
      </trkpt>
      <trkpt lat="43.40783" lon="5.6484">
        <ele>500.8</ele>
        <time>2013-04-10T13:02:01Z</time>
      </trkpt>
      <trkpt lat="43.40786" lon="5.64861">
        <ele>495.2</ele>
        <time>2013-04-10T13:02:16Z</time>
      </trkpt>
      <trkpt lat="43.40789" lon="5.64873">
        <ele>494.6</ele>
        <time>2013-04-10T13:02:24Z</time>
      </trkpt>
      <trkpt lat="43.40791" lon="5.64883">
        <ele>494</ele>
        <time>2013-04-10T13:02:31Z</time>
      </trkpt>
      <trkpt lat="43.40792" lon="5.64895">
        <ele>494.7</ele>
        <time>2013-04-10T13:02:38Z</time>
      </trkpt>
      <trkpt lat="43.40795" lon="5.64906">
        <ele>494</ele>
        <time>2013-04-10T13:02:45Z</time>
      </trkpt>
      <trkpt lat="43.40797" lon="5.64917">
        <ele>493.6</ele>
        <time>2013-04-10T13:02:51Z</time>
      </trkpt>
      <trkpt lat="43.408" lon="5.64928">
        <ele>494.5</ele>
        <time>2013-04-10T13:02:57Z</time>
      </trkpt>
      <trkpt lat="43.40802" lon="5.64939">
        <ele>494.7</ele>
        <time>2013-04-10T13:03:04Z</time>
      </trkpt>
      <trkpt lat="43.40803" lon="5.64941">
        <ele>494.2</ele>
        <time>2013-04-10T13:03:05Z</time>
      </trkpt>
      <trkpt lat="43.40808" lon="5.64961">
        <ele>490.8</ele>
        <time>2013-04-10T13:03:18Z</time>
      </trkpt>
      <trkpt lat="43.40811" lon="5.64971">
        <ele>489.1</ele>
        <time>2013-04-10T13:03:25Z</time>
      </trkpt>
      <trkpt lat="43.40815" lon="5.64981">
        <ele>488.7</ele>
        <time>2013-04-10T13:03:32Z</time>
      </trkpt>
      <trkpt lat="43.40821" lon="5.64991">
        <ele>488.7</ele>
        <time>2013-04-10T13:03:38Z</time>
      </trkpt>
      <trkpt lat="43.40825" lon="5.65">
        <ele>490</ele>
        <time>2013-04-10T13:03:44Z</time>
      </trkpt>
      <trkpt lat="43.40827" lon="5.65011">
        <ele>489.3</ele>
        <time>2013-04-10T13:03:51Z</time>
      </trkpt>
      <trkpt lat="43.4083" lon="5.65021">
        <ele>488.2</ele>
        <time>2013-04-10T13:03:57Z</time>
      </trkpt>
      <trkpt lat="43.40833" lon="5.65033">
        <ele>487.6</ele>
        <time>2013-04-10T13:04:04Z</time>
      </trkpt>
      <trkpt lat="43.40834" lon="5.65044">
        <ele>486.7</ele>
        <time>2013-04-10T13:04:11Z</time>
      </trkpt>
      <trkpt lat="43.40834" lon="5.65045">
        <ele>486.5</ele>
        <time>2013-04-10T13:04:12Z</time>
      </trkpt>
      <trkpt lat="43.40838" lon="5.65066">
        <ele>485.6</ele>
        <time>2013-04-10T13:04:25Z</time>
      </trkpt>
      <trkpt lat="43.4084" lon="5.65077">
        <ele>484.2</ele>
        <time>2013-04-10T13:04:32Z</time>
      </trkpt>
      <trkpt lat="43.40839" lon="5.65089">
        <ele>481.3</ele>
        <time>2013-04-10T13:04:39Z</time>
      </trkpt>
      <trkpt lat="43.40838" lon="5.651">
        <ele>480.2</ele>
        <time>2013-04-10T13:04:46Z</time>
      </trkpt>
      <trkpt lat="43.40837" lon="5.65111">
        <ele>482</ele>
        <time>2013-04-10T13:04:52Z</time>
      </trkpt>
      <trkpt lat="43.40836" lon="5.65123">
        <ele>482.3</ele>
        <time>2013-04-10T13:04:59Z</time>
      </trkpt>
      <trkpt lat="43.40834" lon="5.65135">
        <ele>480.8</ele>
        <time>2013-04-10T13:05:06Z</time>
      </trkpt>
      <trkpt lat="43.40832" lon="5.65147">
        <ele>480.5</ele>
        <time>2013-04-10T13:05:13Z</time>
      </trkpt>
      <trkpt lat="43.40831" lon="5.65148">
        <ele>480.5</ele>
        <time>2013-04-10T13:05:14Z</time>
      </trkpt>
      <trkpt lat="43.40829" lon="5.65169">
        <ele>480.7</ele>
        <time>2013-04-10T13:05:27Z</time>
      </trkpt>
      <trkpt lat="43.40829" lon="5.6518">
        <ele>480.1</ele>
        <time>2013-04-10T13:05:34Z</time>
      </trkpt>
      <trkpt lat="43.40831" lon="5.65191">
        <ele>482</ele>
        <time>2013-04-10T13:05:41Z</time>
      </trkpt>
      <trkpt lat="43.40835" lon="5.65202">
        <ele>481.3</ele>
        <time>2013-04-10T13:05:49Z</time>
      </trkpt>
      <trkpt lat="43.40838" lon="5.65213">
        <ele>481</ele>
        <time>2013-04-10T13:05:55Z</time>
      </trkpt>
      <trkpt lat="43.40843" lon="5.65223">
        <ele>479.8</ele>
        <time>2013-04-10T13:06:02Z</time>
      </trkpt>
      <trkpt lat="43.40846" lon="5.65233">
        <ele>476.7</ele>
        <time>2013-04-10T13:06:09Z</time>
      </trkpt>
      <trkpt lat="43.40852" lon="5.65243">
        <ele>477.7</ele>
        <time>2013-04-10T13:06:15Z</time>
      </trkpt>
      <trkpt lat="43.40853" lon="5.65244">
        <ele>477.6</ele>
        <time>2013-04-10T13:06:16Z</time>
      </trkpt>
      <trkpt lat="43.40862" lon="5.65261">
        <ele>478.6</ele>
        <time>2013-04-10T13:06:29Z</time>
      </trkpt>
      <trkpt lat="43.40866" lon="5.65271">
        <ele>477.8</ele>
        <time>2013-04-10T13:06:36Z</time>
      </trkpt>
      <trkpt lat="43.40871" lon="5.6528">
        <ele>478.5</ele>
        <time>2013-04-10T13:06:44Z</time>
      </trkpt>
      <trkpt lat="43.40875" lon="5.6529">
        <ele>478.1</ele>
        <time>2013-04-10T13:06:52Z</time>
      </trkpt>
      <trkpt lat="43.40878" lon="5.65301">
        <ele>475.7</ele>
        <time>2013-04-10T13:06:59Z</time>
      </trkpt>
      <trkpt lat="43.40882" lon="5.65312">
        <ele>477.6</ele>
        <time>2013-04-10T13:07:07Z</time>
      </trkpt>
      <trkpt lat="43.40885" lon="5.65323">
        <ele>478.1</ele>
        <time>2013-04-10T13:07:14Z</time>
      </trkpt>
      <trkpt lat="43.40889" lon="5.65334">
        <ele>477.1</ele>
        <time>2013-04-10T13:07:21Z</time>
      </trkpt>
      <trkpt lat="43.40889" lon="5.65335">
        <ele>476.7</ele>
        <time>2013-04-10T13:07:22Z</time>
      </trkpt>
      <trkpt lat="43.40894" lon="5.65355">
        <ele>472.5</ele>
        <time>2013-04-10T13:07:34Z</time>
      </trkpt>
      <trkpt lat="43.40894" lon="5.65367">
        <ele>471.1</ele>
        <time>2013-04-10T13:07:42Z</time>
      </trkpt>
      <trkpt lat="43.40892" lon="5.65379">
        <ele>470.5</ele>
        <time>2013-04-10T13:07:49Z</time>
      </trkpt>
      <trkpt lat="43.40889" lon="5.6539">
        <ele>469.6</ele>
        <time>2013-04-10T13:07:57Z</time>
      </trkpt>
      <trkpt lat="43.40883" lon="5.65398">
        <ele>469.7</ele>
        <time>2013-04-10T13:08:05Z</time>
      </trkpt>
      <trkpt lat="43.40877" lon="5.65406">
        <ele>468.7</ele>
        <time>2013-04-10T13:08:13Z</time>
      </trkpt>
      <trkpt lat="43.4087" lon="5.65411">
        <ele>466.7</ele>
        <time>2013-04-10T13:08:20Z</time>
      </trkpt>
      <trkpt lat="43.40862" lon="5.65413">
        <ele>463.6</ele>
        <time>2013-04-10T13:08:29Z</time>
      </trkpt>
      <trkpt lat="43.40861" lon="5.65414">
        <ele>463.2</ele>
        <time>2013-04-10T13:08:30Z</time>
      </trkpt>
      <trkpt lat="43.40846" lon="5.65416">
        <ele>461.5</ele>
        <time>2013-04-10T13:09:16Z</time>
      </trkpt>
      <trkpt lat="43.40838" lon="5.65414">
        <ele>461.6</ele>
        <time>2013-04-10T13:09:23Z</time>
      </trkpt>
      <trkpt lat="43.4083" lon="5.65413">
        <ele>461.2</ele>
        <time>2013-04-10T13:09:30Z</time>
      </trkpt>
      <trkpt lat="43.40828" lon="5.65412">
        <ele>461.1</ele>
        <time>2013-04-10T13:09:31Z</time>
      </trkpt>
      <trkpt lat="43.40813" lon="5.65408">
        <ele>460</ele>
        <time>2013-04-10T13:09:44Z</time>
      </trkpt>
      <trkpt lat="43.40804" lon="5.65405">
        <ele>459.5</ele>
        <time>2013-04-10T13:09:51Z</time>
      </trkpt>
      <trkpt lat="43.40796" lon="5.65405">
        <ele>460.2</ele>
        <time>2013-04-10T13:09:58Z</time>
      </trkpt>
      <trkpt lat="43.40788" lon="5.65409">
        <ele>463.6</ele>
        <time>2013-04-10T13:10:04Z</time>
      </trkpt>
      <trkpt lat="43.4078" lon="5.6541">
        <ele>463.2</ele>
        <time>2013-04-10T13:10:11Z</time>
      </trkpt>
      <trkpt lat="43.40771" lon="5.65411">
        <ele>461.3</ele>
        <time>2013-04-10T13:10:19Z</time>
      </trkpt>
      <trkpt lat="43.40763" lon="5.65411">
        <ele>459</ele>
        <time>2013-04-10T13:10:27Z</time>
      </trkpt>
      <trkpt lat="43.40754" lon="5.65412">
        <ele>456.7</ele>
        <time>2013-04-10T13:10:35Z</time>
      </trkpt>
      <trkpt lat="43.40753" lon="5.65412">
        <ele>456.2</ele>
        <time>2013-04-10T13:10:36Z</time>
      </trkpt>
      <trkpt lat="43.40739" lon="5.6542">
        <ele>455.1</ele>
        <time>2013-04-10T13:10:49Z</time>
      </trkpt>
      <trkpt lat="43.40732" lon="5.65426">
        <ele>456.8</ele>
        <time>2013-04-10T13:10:55Z</time>
      </trkpt>
      <trkpt lat="43.40726" lon="5.65434">
        <ele>458.2</ele>
        <time>2013-04-10T13:11:02Z</time>
      </trkpt>
      <trkpt lat="43.40723" lon="5.65445">
        <ele>461.8</ele>
        <time>2013-04-10T13:11:08Z</time>
      </trkpt>
      <trkpt lat="43.40721" lon="5.65457">
        <ele>466.6</ele>
        <time>2013-04-10T13:11:13Z</time>
      </trkpt>
      <trkpt lat="43.40726" lon="5.65465">
        <ele>466.5</ele>
        <time>2013-04-10T13:11:19Z</time>
      </trkpt>
      <trkpt lat="43.40733" lon="5.6547">
        <ele>467.6</ele>
        <time>2013-04-10T13:11:25Z</time>
      </trkpt>
      <trkpt lat="43.40741" lon="5.65475">
        <ele>467.7</ele>
        <time>2013-04-10T13:11:31Z</time>
      </trkpt>
      <trkpt lat="43.40748" lon="5.65478">
        <ele>467.1</ele>
        <time>2013-04-10T13:11:36Z</time>
      </trkpt>
      <trkpt lat="43.4075" lon="5.65479">
        <ele>468.2</ele>
        <time>2013-04-10T13:11:37Z</time>
      </trkpt>
      <trkpt lat="43.40765" lon="5.65484">
        <ele>466.8</ele>
        <time>2013-04-10T13:11:48Z</time>
      </trkpt>
      <trkpt lat="43.40773" lon="5.65486">
        <ele>464.7</ele>
        <time>2013-04-10T13:11:54Z</time>
      </trkpt>
      <trkpt lat="43.4078" lon="5.65487">
        <ele>464.7</ele>
        <time>2013-04-10T13:12:00Z</time>
      </trkpt>
      <trkpt lat="43.40788" lon="5.65488">
        <ele>462.7</ele>
        <time>2013-04-10T13:12:06Z</time>
      </trkpt>
      <trkpt lat="43.40797" lon="5.6549">
        <ele>464.5</ele>
        <time>2013-04-10T13:12:12Z</time>
      </trkpt>
      <trkpt lat="43.40805" lon="5.65492">
        <ele>464.5</ele>
        <time>2013-04-10T13:12:21Z</time>
      </trkpt>
      <trkpt lat="43.40813" lon="5.65495">
        <ele>463.8</ele>
        <time>2013-04-10T13:12:27Z</time>
      </trkpt>
      <trkpt lat="43.40821" lon="5.65499">
        <ele>464.6</ele>
        <time>2013-04-10T13:12:33Z</time>
      </trkpt>
      <trkpt lat="43.40828" lon="5.65505">
        <ele>462.3</ele>
        <time>2013-04-10T13:12:40Z</time>
      </trkpt>
      <trkpt lat="43.40829" lon="5.65506">
        <ele>462.6</ele>
        <time>2013-04-10T13:12:41Z</time>
      </trkpt>
      <trkpt lat="43.40842" lon="5.65516">
        <ele>461.5</ele>
        <time>2013-04-10T13:12:51Z</time>
      </trkpt>
      <trkpt lat="43.40849" lon="5.65523">
        <ele>455.7</ele>
        <time>2013-04-10T13:12:58Z</time>
      </trkpt>
      <trkpt lat="43.40855" lon="5.65531">
        <ele>453.2</ele>
        <time>2013-04-10T13:13:05Z</time>
      </trkpt>
      <trkpt lat="43.40859" lon="5.65542">
        <ele>451.6</ele>
        <time>2013-04-10T13:13:12Z</time>
      </trkpt>
      <trkpt lat="43.40861" lon="5.65553">
        <ele>448.5</ele>
        <time>2013-04-10T13:13:19Z</time>
      </trkpt>
      <trkpt lat="43.40862" lon="5.65566">
        <ele>448.1</ele>
        <time>2013-04-10T13:13:26Z</time>
      </trkpt>
      <trkpt lat="43.40863" lon="5.65578">
        <ele>444.8</ele>
        <time>2013-04-10T13:13:33Z</time>
      </trkpt>
      <trkpt lat="43.40865" lon="5.65589">
        <ele>447.8</ele>
        <time>2013-04-10T13:13:40Z</time>
      </trkpt>
      <trkpt lat="43.40867" lon="5.65599">
        <ele>450.3</ele>
        <time>2013-04-10T13:13:46Z</time>
      </trkpt>
      <trkpt lat="43.40868" lon="5.65601">
        <ele>451.2</ele>
        <time>2013-04-10T13:13:47Z</time>
      </trkpt>
      <trkpt lat="43.40878" lon="5.65616">
        <ele>444</ele>
        <time>2013-04-10T13:13:57Z</time>
      </trkpt>
      <trkpt lat="43.40884" lon="5.65624">
        <ele>441.7</ele>
        <time>2013-04-10T13:14:04Z</time>
      </trkpt>
      <trkpt lat="43.4089" lon="5.65632">
        <ele>435.7</ele>
        <time>2013-04-10T13:14:11Z</time>
      </trkpt>
      <trkpt lat="43.40898" lon="5.65637">
        <ele>436.3</ele>
        <time>2013-04-10T13:14:16Z</time>
      </trkpt>
      <trkpt lat="43.40904" lon="5.65643">
        <ele>436.7</ele>
        <time>2013-04-10T13:14:22Z</time>
      </trkpt>
      <trkpt lat="43.40911" lon="5.65649">
        <ele>437.1</ele>
        <time>2013-04-10T13:14:28Z</time>
      </trkpt>
      <trkpt lat="43.40918" lon="5.65655">
        <ele>436.7</ele>
        <time>2013-04-10T13:14:34Z</time>
      </trkpt>
      <trkpt lat="43.40924" lon="5.65663">
        <ele>438.7</ele>
        <time>2013-04-10T13:14:40Z</time>
      </trkpt>
      <trkpt lat="43.4093" lon="5.65672">
        <ele>436.1</ele>
        <time>2013-04-10T13:14:47Z</time>
      </trkpt>
      <trkpt lat="43.40931" lon="5.65673">
        <ele>435.7</ele>
        <time>2013-04-10T13:14:48Z</time>
      </trkpt>
      <trkpt lat="43.4094" lon="5.6569">
        <ele>432.1</ele>
        <time>2013-04-10T13:15:01Z</time>
      </trkpt>
      <trkpt lat="43.40945" lon="5.65697">
        <ele>434.3</ele>
        <time>2013-04-10T13:15:06Z</time>
      </trkpt>
      <trkpt lat="43.40947" lon="5.65709">
        <ele>433.5</ele>
        <time>2013-04-10T13:15:13Z</time>
      </trkpt>
      <trkpt lat="43.40946" lon="5.65721">
        <ele>429.6</ele>
        <time>2013-04-10T13:15:22Z</time>
      </trkpt>
      <trkpt lat="43.40947" lon="5.65733">
        <ele>426.8</ele>
        <time>2013-04-10T13:15:29Z</time>
      </trkpt>
      <trkpt lat="43.40951" lon="5.65743">
        <ele>430.1</ele>
        <time>2013-04-10T13:15:35Z</time>
      </trkpt>
      <trkpt lat="43.40954" lon="5.65754">
        <ele>433.1</ele>
        <time>2013-04-10T13:15:41Z</time>
      </trkpt>
      <trkpt lat="43.40956" lon="5.65764">
        <ele>432.3</ele>
        <time>2013-04-10T13:15:47Z</time>
      </trkpt>
      <trkpt lat="43.40956" lon="5.65775">
        <ele>429.2</ele>
        <time>2013-04-10T13:15:53Z</time>
      </trkpt>
      <trkpt lat="43.40957" lon="5.65777">
        <ele>429.5</ele>
        <time>2013-04-10T13:15:54Z</time>
      </trkpt>
      <trkpt lat="43.40958" lon="5.65797">
        <ele>429.7</ele>
        <time>2013-04-10T13:16:04Z</time>
      </trkpt>
      <trkpt lat="43.40958" lon="5.65807">
        <ele>425.8</ele>
        <time>2013-04-10T13:16:10Z</time>
      </trkpt>
      <trkpt lat="43.40961" lon="5.65817">
        <ele>428.3</ele>
        <time>2013-04-10T13:16:15Z</time>
      </trkpt>
      <trkpt lat="43.40963" lon="5.65828">
        <ele>428.6</ele>
        <time>2013-04-10T13:16:22Z</time>
      </trkpt>
      <trkpt lat="43.40962" lon="5.65841">
        <ele>426.7</ele>
        <time>2013-04-10T13:16:30Z</time>
      </trkpt>
      <trkpt lat="43.40962" lon="5.65851">
        <ele>428.2</ele>
        <time>2013-04-10T13:16:36Z</time>
      </trkpt>
      <trkpt lat="43.4096" lon="5.65862">
        <ele>427.7</ele>
        <time>2013-04-10T13:16:42Z</time>
      </trkpt>
      <trkpt lat="43.40959" lon="5.65872">
        <ele>423.6</ele>
        <time>2013-04-10T13:16:49Z</time>
      </trkpt>
      <trkpt lat="43.40957" lon="5.65882">
        <ele>421.7</ele>
        <time>2013-04-10T13:16:54Z</time>
      </trkpt>
      <trkpt lat="43.40956" lon="5.65884">
        <ele>422.1</ele>
        <time>2013-04-10T13:16:55Z</time>
      </trkpt>
      <trkpt lat="43.40955" lon="5.65905">
        <ele>422.6</ele>
        <time>2013-04-10T13:17:07Z</time>
      </trkpt>
      <trkpt lat="43.40957" lon="5.65916">
        <ele>424.7</ele>
        <time>2013-04-10T13:17:13Z</time>
      </trkpt>
      <trkpt lat="43.40957" lon="5.65928">
        <ele>425.1</ele>
        <time>2013-04-10T13:17:19Z</time>
      </trkpt>
      <trkpt lat="43.40957" lon="5.65939">
        <ele>425.8</ele>
        <time>2013-04-10T13:17:25Z</time>
      </trkpt>
      <trkpt lat="43.40959" lon="5.65949">
        <ele>427.7</ele>
        <time>2013-04-10T13:17:31Z</time>
      </trkpt>
      <trkpt lat="43.40961" lon="5.6596">
        <ele>429.2</ele>
        <time>2013-04-10T13:17:37Z</time>
      </trkpt>
      <trkpt lat="43.40966" lon="5.65971">
        <ele>432.7</ele>
        <time>2013-04-10T13:17:44Z</time>
      </trkpt>
      <trkpt lat="43.40968" lon="5.6598">
        <ele>429.2</ele>
        <time>2013-04-10T13:17:49Z</time>
      </trkpt>
      <trkpt lat="43.40974" lon="5.65989">
        <ele>430.2</ele>
        <time>2013-04-10T13:17:54Z</time>
      </trkpt>
      <trkpt lat="43.4098" lon="5.65996">
        <ele>426.2</ele>
        <time>2013-04-10T13:18:03Z</time>
      </trkpt>
      <trkpt lat="43.40981" lon="5.65997">
        <ele>425.7</ele>
        <time>2013-04-10T13:18:04Z</time>
      </trkpt>
      <trkpt lat="43.40995" lon="5.66006">
        <ele>429.1</ele>
        <time>2013-04-10T13:21:54Z</time>
      </trkpt>
      <trkpt lat="43.40995" lon="5.66006">
        <ele>429.2</ele>
        <time>2013-04-10T13:21:55Z</time>
      </trkpt>
      <trkpt lat="43.40998" lon="5.66018">
        <ele>419.6</ele>
        <time>2013-04-10T13:23:04Z</time>
      </trkpt>
      <trkpt lat="43.41" lon="5.6604">
        <ele>410.2</ele>
        <time>2013-04-10T13:23:22Z</time>
      </trkpt>
      <trkpt lat="43.41002" lon="5.66051">
        <ele>405.7</ele>
        <time>2013-04-10T13:23:31Z</time>
      </trkpt>
      <trkpt lat="43.41011" lon="5.66054">
        <ele>410.2</ele>
        <time>2013-04-10T13:23:42Z</time>
      </trkpt>
      <trkpt lat="43.41017" lon="5.66061">
        <ele>415.2</ele>
        <time>2013-04-10T13:24:14Z</time>
      </trkpt>
      <trkpt lat="43.41018" lon="5.66062">
        <ele>415.2</ele>
        <time>2013-04-10T13:24:15Z</time>
      </trkpt>
      <trkpt lat="43.41026" lon="5.66081">
        <ele>414.3</ele>
        <time>2013-04-10T13:24:33Z</time>
      </trkpt>
      <trkpt lat="43.4103" lon="5.66091">
        <ele>411.2</ele>
        <time>2013-04-10T13:24:41Z</time>
      </trkpt>
      <trkpt lat="43.41033" lon="5.66101">
        <ele>408.8</ele>
        <time>2013-04-10T13:24:49Z</time>
      </trkpt>
      <trkpt lat="43.4104" lon="5.66109">
        <ele>412.7</ele>
        <time>2013-04-10T13:24:55Z</time>
      </trkpt>
      <trkpt lat="43.41041" lon="5.66122">
        <ele>411.8</ele>
        <time>2013-04-10T13:25:04Z</time>
      </trkpt>
      <trkpt lat="43.41039" lon="5.66133">
        <ele>410.2</ele>
        <time>2013-04-10T13:25:12Z</time>
      </trkpt>
      <trkpt lat="43.4104" lon="5.66143">
        <ele>412.5</ele>
        <time>2013-04-10T13:25:18Z</time>
      </trkpt>
      <trkpt lat="43.4104" lon="5.66145">
        <ele>413</ele>
        <time>2013-04-10T13:25:19Z</time>
      </trkpt>
      <trkpt lat="43.41044" lon="5.66166">
        <ele>417.7</ele>
        <time>2013-04-10T13:25:31Z</time>
      </trkpt>
      <trkpt lat="43.41046" lon="5.66177">
        <ele>419.2</ele>
        <time>2013-04-10T13:25:38Z</time>
      </trkpt>
      <trkpt lat="43.41047" lon="5.66188">
        <ele>419.8</ele>
        <time>2013-04-10T13:25:45Z</time>
      </trkpt>
      <trkpt lat="43.4105" lon="5.66199">
        <ele>419.6</ele>
        <time>2013-04-10T13:25:53Z</time>
      </trkpt>
      <trkpt lat="43.41053" lon="5.6621">
        <ele>419.7</ele>
        <time>2013-04-10T13:26:00Z</time>
      </trkpt>
      <trkpt lat="43.41058" lon="5.6622">
        <ele>419.3</ele>
        <time>2013-04-10T13:26:07Z</time>
      </trkpt>
      <trkpt lat="43.41064" lon="5.66229">
        <ele>422</ele>
        <time>2013-04-10T13:26:14Z</time>
      </trkpt>
      <trkpt lat="43.41069" lon="5.66239">
        <ele>424.6</ele>
        <time>2013-04-10T13:26:21Z</time>
      </trkpt>
      <trkpt lat="43.4107" lon="5.6624">
        <ele>424.5</ele>
        <time>2013-04-10T13:26:22Z</time>
      </trkpt>
      <trkpt lat="43.41078" lon="5.66257">
        <ele>427.3</ele>
        <time>2013-04-10T13:26:35Z</time>
      </trkpt>
      <trkpt lat="43.41085" lon="5.66263">
        <ele>431.2</ele>
        <time>2013-04-10T13:26:39Z</time>
      </trkpt>
      <trkpt lat="43.41088" lon="5.66274">
        <ele>427</ele>
        <time>2013-04-10T13:26:48Z</time>
      </trkpt>
      <trkpt lat="43.41091" lon="5.66284">
        <ele>426.1</ele>
        <time>2013-04-10T13:26:56Z</time>
      </trkpt>
      <trkpt lat="43.41094" lon="5.66295">
        <ele>423.7</ele>
        <time>2013-04-10T13:27:03Z</time>
      </trkpt>
      <trkpt lat="43.41095" lon="5.66306">
        <ele>420.5</ele>
        <time>2013-04-10T13:27:10Z</time>
      </trkpt>
      <trkpt lat="43.41095" lon="5.66318">
        <ele>417.5</ele>
        <time>2013-04-10T13:27:17Z</time>
      </trkpt>
      <trkpt lat="43.411" lon="5.66328">
        <ele>416.7</ele>
        <time>2013-04-10T13:27:23Z</time>
      </trkpt>
      <trkpt lat="43.411" lon="5.66329">
        <ele>417</ele>
        <time>2013-04-10T13:27:24Z</time>
      </trkpt>
      <trkpt lat="43.41104" lon="5.6635">
        <ele>420</ele>
        <time>2013-04-10T13:27:37Z</time>
      </trkpt>
      <trkpt lat="43.41104" lon="5.66363">
        <ele>418.8</ele>
        <time>2013-04-10T13:27:45Z</time>
      </trkpt>
      <trkpt lat="43.41104" lon="5.66375">
        <ele>415.3</ele>
        <time>2013-04-10T13:27:55Z</time>
      </trkpt>
      <trkpt lat="43.41103" lon="5.66387">
        <ele>416.6</ele>
        <time>2013-04-10T13:28:02Z</time>
      </trkpt>
      <trkpt lat="43.41104" lon="5.66399">
        <ele>417</ele>
        <time>2013-04-10T13:28:09Z</time>
      </trkpt>
      <trkpt lat="43.41104" lon="5.66411">
        <ele>417</ele>
        <time>2013-04-10T13:28:16Z</time>
      </trkpt>
      <trkpt lat="43.41105" lon="5.66423">
        <ele>416.1</ele>
        <time>2013-04-10T13:28:23Z</time>
      </trkpt>
      <trkpt lat="43.41108" lon="5.66433">
        <ele>416.7</ele>
        <time>2013-04-10T13:28:30Z</time>
      </trkpt>
      <trkpt lat="43.41108" lon="5.66435">
        <ele>416.3</ele>
        <time>2013-04-10T13:28:31Z</time>
      </trkpt>
      <trkpt lat="43.41116" lon="5.66454">
        <ele>417.2</ele>
        <time>2013-04-10T13:28:45Z</time>
      </trkpt>
      <trkpt lat="43.41122" lon="5.66463">
        <ele>420.1</ele>
        <time>2013-04-10T13:28:52Z</time>
      </trkpt>
      <trkpt lat="43.41126" lon="5.66473">
        <ele>418.1</ele>
        <time>2013-04-10T13:28:59Z</time>
      </trkpt>
      <trkpt lat="43.41133" lon="5.66479">
        <ele>419.8</ele>
        <time>2013-04-10T13:29:04Z</time>
      </trkpt>
      <trkpt lat="43.41139" lon="5.66489">
        <ele>420.7</ele>
        <time>2013-04-10T13:29:11Z</time>
      </trkpt>
      <trkpt lat="43.41144" lon="5.66498">
        <ele>421.2</ele>
        <time>2013-04-10T13:29:18Z</time>
      </trkpt>
      <trkpt lat="43.41148" lon="5.66507">
        <ele>421.8</ele>
        <time>2013-04-10T13:29:24Z</time>
      </trkpt>
      <trkpt lat="43.41152" lon="5.66517">
        <ele>421.2</ele>
        <time>2013-04-10T13:29:31Z</time>
      </trkpt>
      <trkpt lat="43.41152" lon="5.66519">
        <ele>420.3</ele>
        <time>2013-04-10T13:29:32Z</time>
      </trkpt>
      <trkpt lat="43.41158" lon="5.66539">
        <ele>410.2</ele>
        <time>2013-04-10T13:29:46Z</time>
      </trkpt>
      <trkpt lat="43.41162" lon="5.66547">
        <ele>408.7</ele>
        <time>2013-04-10T13:29:52Z</time>
      </trkpt>
      <trkpt lat="43.41168" lon="5.66556">
        <ele>410.2</ele>
        <time>2013-04-10T13:29:59Z</time>
      </trkpt>
      <trkpt lat="43.41175" lon="5.66564">
        <ele>408.2</ele>
        <time>2013-04-10T13:30:05Z</time>
      </trkpt>
      <trkpt lat="43.4118" lon="5.66572">
        <ele>409.7</ele>
        <time>2013-04-10T13:30:11Z</time>
      </trkpt>
      <trkpt lat="43.41186" lon="5.66579">
        <ele>408</ele>
        <time>2013-04-10T13:30:16Z</time>
      </trkpt>
      <trkpt lat="43.41192" lon="5.66587">
        <ele>408.2</ele>
        <time>2013-04-10T13:30:22Z</time>
      </trkpt>
      <trkpt lat="43.41199" lon="5.66593">
        <ele>411.2</ele>
        <time>2013-04-10T13:30:27Z</time>
      </trkpt>
      <trkpt lat="43.41204" lon="5.66602">
        <ele>410.6</ele>
        <time>2013-04-10T13:30:34Z</time>
      </trkpt>
      <trkpt lat="43.41205" lon="5.66603">
        <ele>410.5</ele>
        <time>2013-04-10T13:30:35Z</time>
      </trkpt>
      <trkpt lat="43.41217" lon="5.66617">
        <ele>410.2</ele>
        <time>2013-04-10T13:30:49Z</time>
      </trkpt>
      <trkpt lat="43.41224" lon="5.66622">
        <ele>408.8</ele>
        <time>2013-04-10T13:30:56Z</time>
      </trkpt>
      <trkpt lat="43.41233" lon="5.66625">
        <ele>410.7</ele>
        <time>2013-04-10T13:31:02Z</time>
      </trkpt>
      <trkpt lat="43.4124" lon="5.66632">
        <ele>410.2</ele>
        <time>2013-04-10T13:31:10Z</time>
      </trkpt>
      <trkpt lat="43.41248" lon="5.66637">
        <ele>410.1</ele>
        <time>2013-04-10T13:31:16Z</time>
      </trkpt>
      <trkpt lat="43.41255" lon="5.66643">
        <ele>408.2</ele>
        <time>2013-04-10T13:31:24Z</time>
      </trkpt>
      <trkpt lat="43.41262" lon="5.6665">
        <ele>407.1</ele>
        <time>2013-04-10T13:31:33Z</time>
      </trkpt>
      <trkpt lat="43.41269" lon="5.66657">
        <ele>406.3</ele>
        <time>2013-04-10T13:31:42Z</time>
      </trkpt>
      <trkpt lat="43.4127" lon="5.66658">
        <ele>406.5</ele>
        <time>2013-04-10T13:31:43Z</time>
      </trkpt>
      <trkpt lat="43.41284" lon="5.66669">
        <ele>406.7</ele>
        <time>2013-04-10T13:31:57Z</time>
      </trkpt>
      <trkpt lat="43.4129" lon="5.66672">
        <ele>407.7</ele>
        <time>2013-04-10T13:32:01Z</time>
      </trkpt>
      <trkpt lat="43.41299" lon="5.66676">
        <ele>409.7</ele>
        <time>2013-04-10T13:32:06Z</time>
      </trkpt>
      <trkpt lat="43.41306" lon="5.66681">
        <ele>410.1</ele>
        <time>2013-04-10T13:32:14Z</time>
      </trkpt>
      <trkpt lat="43.41314" lon="5.66687">
        <ele>412.1</ele>
        <time>2013-04-10T13:32:24Z</time>
      </trkpt>
      <trkpt lat="43.41322" lon="5.66693">
        <ele>413.7</ele>
        <time>2013-04-10T13:32:30Z</time>
      </trkpt>
      <trkpt lat="43.41326" lon="5.66702">
        <ele>415.2</ele>
        <time>2013-04-10T13:32:38Z</time>
      </trkpt>
      <trkpt lat="43.41329" lon="5.66713">
        <ele>416.2</ele>
        <time>2013-04-10T13:32:47Z</time>
      </trkpt>
      <trkpt lat="43.4133" lon="5.66714">
        <ele>416.7</ele>
        <time>2013-04-10T13:32:48Z</time>
      </trkpt>
      <trkpt lat="43.41342" lon="5.66729">
        <ele>417.6</ele>
        <time>2013-04-10T13:33:07Z</time>
      </trkpt>
      <trkpt lat="43.41349" lon="5.66733">
        <ele>420.3</ele>
        <time>2013-04-10T13:33:13Z</time>
      </trkpt>
      <trkpt lat="43.41357" lon="5.66734">
        <ele>423.2</ele>
        <time>2013-04-10T13:33:20Z</time>
      </trkpt>
      <trkpt lat="43.41364" lon="5.66728">
        <ele>424.8</ele>
        <time>2013-04-10T13:33:27Z</time>
      </trkpt>
      <trkpt lat="43.41369" lon="5.6672">
        <ele>424.2</ele>
        <time>2013-04-10T13:33:34Z</time>
      </trkpt>
      <trkpt lat="43.41373" lon="5.66709">
        <ele>423.5</ele>
        <time>2013-04-10T13:33:41Z</time>
      </trkpt>
      <trkpt lat="43.41376" lon="5.66699">
        <ele>424.5</ele>
        <time>2013-04-10T13:33:48Z</time>
      </trkpt>
      <trkpt lat="43.41377" lon="5.66698">
        <ele>424.6</ele>
        <time>2013-04-10T13:33:49Z</time>
      </trkpt>
    </trkseg>
  </trk>
</gpx>